<?xml version="1.0" encoding="UTF-8" standalone="no" ?>
<gpx xmlns="http://www.topografix.com/GPX/1/1" xmlns:xsi="http://www.w3.org/2001/XMLSchema-instance" xsi:schemaLocation="http://www.topografix.com/GPX/1/1 http://www.topografix.com/GPX/1/1/gpx.xsd" version="1.1" creator="VisuGPX - https://www.visugpx.com">
  <metadata>
    <name>St clar tour village</name>
  </metadata>
  <trk>
    <name><![CDATA[St clar tour village]]></name>
    <trkseg>
      <trkpt lat="43.46509" lon="1.21727">
        <ele>197.34</ele>
        <time>2018-01-25T09:18:54Z</time>
      </trkpt>
      <trkpt lat="43.46509" lon="1.21727">
        <ele>197.28</ele>
        <time>2018-01-25T09:18:55Z</time>
      </trkpt>
      <trkpt lat="43.46515" lon="1.21721">
        <ele>197.14</ele>
        <time>2018-01-25T09:19:18Z</time>
      </trkpt>
      <trkpt lat="43.46516" lon="1.2172">
        <ele>197.15</ele>
        <time>2018-01-25T09:19:20Z</time>
      </trkpt>
      <trkpt lat="43.46518" lon="1.21714">
        <ele>197.2</ele>
        <time>2018-01-25T09:19:24Z</time>
      </trkpt>
      <trkpt lat="43.46527" lon="1.21699">
        <ele>197.29</ele>
        <time>2018-01-25T09:19:41Z</time>
      </trkpt>
      <trkpt lat="43.46535" lon="1.21696">
        <ele>197.28</ele>
        <time>2018-01-25T09:19:50Z</time>
      </trkpt>
      <trkpt lat="43.46562" lon="1.21678">
        <ele>197.07</ele>
        <time>2018-01-25T09:20:13Z</time>
      </trkpt>
      <trkpt lat="43.46578" lon="1.21667">
        <ele>196.9</ele>
        <time>2018-01-25T09:20:26Z</time>
      </trkpt>
      <trkpt lat="43.4658" lon="1.21662">
        <ele>196.87</ele>
        <time>2018-01-25T09:20:28Z</time>
      </trkpt>
      <trkpt lat="43.46583" lon="1.2166">
        <ele>196.84</ele>
        <time>2018-01-25T09:20:30Z</time>
      </trkpt>
      <trkpt lat="43.46603" lon="1.2164">
        <ele>196.44</ele>
        <time>2018-01-25T09:20:50Z</time>
      </trkpt>
      <trkpt lat="43.46616" lon="1.21637">
        <ele>196.49</ele>
        <time>2018-01-25T09:21:09Z</time>
      </trkpt>
      <trkpt lat="43.46625" lon="1.21633">
        <ele>196.39</ele>
        <time>2018-01-25T09:21:18Z</time>
      </trkpt>
      <trkpt lat="43.46631" lon="1.21616">
        <ele>196.39</ele>
        <time>2018-01-25T09:21:25Z</time>
      </trkpt>
      <trkpt lat="43.46636" lon="1.21614">
        <ele>196.32</ele>
        <time>2018-01-25T09:21:29Z</time>
      </trkpt>
      <trkpt lat="43.4665" lon="1.21608">
        <ele>196.07</ele>
        <time>2018-01-25T09:21:43Z</time>
      </trkpt>
      <trkpt lat="43.4668" lon="1.21611">
        <ele>195.69</ele>
        <time>2018-01-25T09:22:04Z</time>
      </trkpt>
      <trkpt lat="43.46684" lon="1.21612">
        <ele>195.65</ele>
        <time>2018-01-25T09:22:08Z</time>
      </trkpt>
      <trkpt lat="43.46699" lon="1.21615">
        <ele>195.39</ele>
        <time>2018-01-25T09:22:22Z</time>
      </trkpt>
      <trkpt lat="43.46702" lon="1.21616">
        <ele>195.39</ele>
        <time>2018-01-25T09:22:25Z</time>
      </trkpt>
      <trkpt lat="43.46711" lon="1.21616">
        <ele>195.51</ele>
        <time>2018-01-25T09:22:30Z</time>
      </trkpt>
      <trkpt lat="43.46722" lon="1.21609">
        <ele>195.72</ele>
        <time>2018-01-25T09:22:33Z</time>
      </trkpt>
      <trkpt lat="43.46732" lon="1.21614">
        <ele>196.01</ele>
        <time>2018-01-25T09:22:43Z</time>
      </trkpt>
      <trkpt lat="43.46756" lon="1.21611">
        <ele>196.18</ele>
        <time>2018-01-25T09:23:00Z</time>
      </trkpt>
      <trkpt lat="43.46775" lon="1.21621">
        <ele>196.29</ele>
        <time>2018-01-25T09:23:17Z</time>
      </trkpt>
      <trkpt lat="43.4678" lon="1.21618">
        <ele>196.31</ele>
        <time>2018-01-25T09:23:25Z</time>
      </trkpt>
      <trkpt lat="43.46781" lon="1.21609">
        <ele>196.35</ele>
        <time>2018-01-25T09:23:29Z</time>
      </trkpt>
      <trkpt lat="43.46782" lon="1.21576">
        <ele>196.42</ele>
        <time>2018-01-25T09:23:45Z</time>
      </trkpt>
      <trkpt lat="43.46781" lon="1.2155">
        <ele>196.2</ele>
        <time>2018-01-25T09:24:00Z</time>
      </trkpt>
      <trkpt lat="43.46781" lon="1.21519">
        <ele>195.62</ele>
        <time>2018-01-25T09:24:16Z</time>
      </trkpt>
      <trkpt lat="43.46781" lon="1.21507">
        <ele>195.35</ele>
        <time>2018-01-25T09:24:22Z</time>
      </trkpt>
      <trkpt lat="43.4678" lon="1.21476">
        <ele>195.27</ele>
        <time>2018-01-25T09:24:39Z</time>
      </trkpt>
      <trkpt lat="43.46782" lon="1.21462">
        <ele>195.21</ele>
        <time>2018-01-25T09:24:47Z</time>
      </trkpt>
      <trkpt lat="43.4678" lon="1.21454">
        <ele>195.23</ele>
        <time>2018-01-25T09:24:51Z</time>
      </trkpt>
      <trkpt lat="43.46779" lon="1.21417">
        <ele>195.35</ele>
        <time>2018-01-25T09:25:10Z</time>
      </trkpt>
      <trkpt lat="43.46781" lon="1.21376">
        <ele>195.42</ele>
        <time>2018-01-25T09:25:32Z</time>
      </trkpt>
      <trkpt lat="43.46784" lon="1.21344">
        <ele>195.59</ele>
        <time>2018-01-25T09:25:50Z</time>
      </trkpt>
      <trkpt lat="43.46787" lon="1.21314">
        <ele>195.81</ele>
        <time>2018-01-25T09:26:08Z</time>
      </trkpt>
      <trkpt lat="43.46792" lon="1.2129">
        <ele>195.73</ele>
        <time>2018-01-25T09:26:21Z</time>
      </trkpt>
      <trkpt lat="43.46795" lon="1.21263">
        <ele>195.63</ele>
        <time>2018-01-25T09:26:36Z</time>
      </trkpt>
      <trkpt lat="43.46803" lon="1.21236">
        <ele>195.53</ele>
        <time>2018-01-25T09:26:53Z</time>
      </trkpt>
      <trkpt lat="43.46809" lon="1.21205">
        <ele>195.52</ele>
        <time>2018-01-25T09:27:11Z</time>
      </trkpt>
      <trkpt lat="43.46815" lon="1.2118">
        <ele>195.35</ele>
        <time>2018-01-25T09:27:27Z</time>
      </trkpt>
      <trkpt lat="43.46816" lon="1.21143">
        <ele>195.57</ele>
        <time>2018-01-25T09:27:43Z</time>
      </trkpt>
      <trkpt lat="43.46821" lon="1.21121">
        <ele>195.65</ele>
        <time>2018-01-25T09:27:56Z</time>
      </trkpt>
      <trkpt lat="43.46823" lon="1.21103">
        <ele>195.58</ele>
        <time>2018-01-25T09:28:05Z</time>
      </trkpt>
      <trkpt lat="43.46828" lon="1.21065">
        <ele>194.22</ele>
        <time>2018-01-25T09:28:25Z</time>
      </trkpt>
      <trkpt lat="43.46834" lon="1.21037">
        <ele>193.13</ele>
        <time>2018-01-25T09:28:41Z</time>
      </trkpt>
      <trkpt lat="43.46846" lon="1.21003">
        <ele>191.26</ele>
        <time>2018-01-25T09:29:02Z</time>
      </trkpt>
      <trkpt lat="43.46854" lon="1.20988">
        <ele>190.12</ele>
        <time>2018-01-25T09:29:13Z</time>
      </trkpt>
      <trkpt lat="43.46858" lon="1.20978">
        <ele>189.32</ele>
        <time>2018-01-25T09:29:19Z</time>
      </trkpt>
      <trkpt lat="43.46866" lon="1.20968">
        <ele>188.42</ele>
        <time>2018-01-25T09:29:26Z</time>
      </trkpt>
      <trkpt lat="43.46881" lon="1.20942">
        <ele>186.98</ele>
        <time>2018-01-25T09:29:44Z</time>
      </trkpt>
      <trkpt lat="43.46883" lon="1.20936">
        <ele>186.72</ele>
        <time>2018-01-25T09:29:47Z</time>
      </trkpt>
      <trkpt lat="43.46896" lon="1.20929">
        <ele>186.12</ele>
        <time>2018-01-25T09:29:57Z</time>
      </trkpt>
      <trkpt lat="43.46904" lon="1.20921">
        <ele>185.71</ele>
        <time>2018-01-25T09:30:11Z</time>
      </trkpt>
      <trkpt lat="43.46906" lon="1.20921">
        <ele>185.69</ele>
        <time>2018-01-25T09:30:13Z</time>
      </trkpt>
      <trkpt lat="43.46916" lon="1.20923">
        <ele>185.62</ele>
        <time>2018-01-25T09:30:20Z</time>
      </trkpt>
      <trkpt lat="43.46931" lon="1.20919">
        <ele>185.17</ele>
        <time>2018-01-25T09:30:38Z</time>
      </trkpt>
      <trkpt lat="43.4693" lon="1.20924">
        <ele>183.73</ele>
        <time>2018-01-25T09:36:57Z</time>
      </trkpt>
      <trkpt lat="43.46933" lon="1.20922">
        <ele>183.89</ele>
        <time>2018-01-25T09:37:04Z</time>
      </trkpt>
      <trkpt lat="43.46942" lon="1.20922">
        <ele>184.53</ele>
        <time>2018-01-25T09:37:10Z</time>
      </trkpt>
      <trkpt lat="43.46956" lon="1.20927">
        <ele>184.62</ele>
        <time>2018-01-25T09:37:20Z</time>
      </trkpt>
      <trkpt lat="43.4696" lon="1.20931">
        <ele>184.56</ele>
        <time>2018-01-25T09:37:25Z</time>
      </trkpt>
      <trkpt lat="43.46973" lon="1.20939">
        <ele>184.34</ele>
        <time>2018-01-25T09:37:38Z</time>
      </trkpt>
      <trkpt lat="43.4699" lon="1.20957">
        <ele>183.85</ele>
        <time>2018-01-25T09:37:55Z</time>
      </trkpt>
      <trkpt lat="43.47012" lon="1.20983">
        <ele>183.35</ele>
        <time>2018-01-25T09:38:17Z</time>
      </trkpt>
      <trkpt lat="43.47031" lon="1.21005">
        <ele>182.78</ele>
        <time>2018-01-25T09:38:33Z</time>
      </trkpt>
      <trkpt lat="43.47041" lon="1.21018">
        <ele>182.2</ele>
        <time>2018-01-25T09:38:45Z</time>
      </trkpt>
      <trkpt lat="43.47058" lon="1.21051">
        <ele>181.93</ele>
        <time>2018-01-25T09:39:05Z</time>
      </trkpt>
      <trkpt lat="43.47069" lon="1.21083">
        <ele>181.28</ele>
        <time>2018-01-25T09:39:24Z</time>
      </trkpt>
      <trkpt lat="43.47077" lon="1.21102">
        <ele>180.29</ele>
        <time>2018-01-25T09:39:41Z</time>
      </trkpt>
      <trkpt lat="43.4708" lon="1.21098">
        <ele>180.51</ele>
        <time>2018-01-25T09:40:03Z</time>
      </trkpt>
      <trkpt lat="43.47083" lon="1.21128">
        <ele>179.97</ele>
        <time>2018-01-25T09:40:16Z</time>
      </trkpt>
      <trkpt lat="43.47094" lon="1.2115">
        <ele>179.82</ele>
        <time>2018-01-25T09:40:31Z</time>
      </trkpt>
      <trkpt lat="43.471" lon="1.21163">
        <ele>179.74</ele>
        <time>2018-01-25T09:40:39Z</time>
      </trkpt>
      <trkpt lat="43.47113" lon="1.21182">
        <ele>179.69</ele>
        <time>2018-01-25T09:40:54Z</time>
      </trkpt>
      <trkpt lat="43.47124" lon="1.21196">
        <ele>179.57</ele>
        <time>2018-01-25T09:41:07Z</time>
      </trkpt>
      <trkpt lat="43.47134" lon="1.21206">
        <ele>179.42</ele>
        <time>2018-01-25T09:41:16Z</time>
      </trkpt>
      <trkpt lat="43.4715" lon="1.2122">
        <ele>179.25</ele>
        <time>2018-01-25T09:41:32Z</time>
      </trkpt>
      <trkpt lat="43.4718" lon="1.21241">
        <ele>179.02</ele>
        <time>2018-01-25T09:41:54Z</time>
      </trkpt>
      <trkpt lat="43.47211" lon="1.21257">
        <ele>178.52</ele>
        <time>2018-01-25T09:42:17Z</time>
      </trkpt>
      <trkpt lat="43.47243" lon="1.21268">
        <ele>178.11</ele>
        <time>2018-01-25T09:42:43Z</time>
      </trkpt>
      <trkpt lat="43.47255" lon="1.21271">
        <ele>178</ele>
        <time>2018-01-25T09:42:52Z</time>
      </trkpt>
      <trkpt lat="43.47262" lon="1.21277">
        <ele>177.92</ele>
        <time>2018-01-25T09:42:59Z</time>
      </trkpt>
      <trkpt lat="43.47271" lon="1.2128">
        <ele>177.89</ele>
        <time>2018-01-25T09:43:05Z</time>
      </trkpt>
      <trkpt lat="43.47292" lon="1.21287">
        <ele>177.72</ele>
        <time>2018-01-25T09:43:20Z</time>
      </trkpt>
      <trkpt lat="43.47305" lon="1.21297">
        <ele>177.62</ele>
        <time>2018-01-25T09:43:34Z</time>
      </trkpt>
      <trkpt lat="43.47335" lon="1.21307">
        <ele>177.73</ele>
        <time>2018-01-25T09:43:56Z</time>
      </trkpt>
      <trkpt lat="43.47364" lon="1.21314">
        <ele>177.38</ele>
        <time>2018-01-25T09:44:19Z</time>
      </trkpt>
      <trkpt lat="43.47366" lon="1.21315">
        <ele>177.23</ele>
        <time>2018-01-25T09:44:21Z</time>
      </trkpt>
      <trkpt lat="43.47374" lon="1.21316">
        <ele>177</ele>
        <time>2018-01-25T09:44:26Z</time>
      </trkpt>
      <trkpt lat="43.47391" lon="1.21322">
        <ele>176.9</ele>
        <time>2018-01-25T09:44:39Z</time>
      </trkpt>
      <trkpt lat="43.47407" lon="1.21324">
        <ele>176.71</ele>
        <time>2018-01-25T09:44:50Z</time>
      </trkpt>
      <trkpt lat="43.47415" lon="1.21325">
        <ele>176.63</ele>
        <time>2018-01-25T09:44:55Z</time>
      </trkpt>
      <trkpt lat="43.47425" lon="1.21332">
        <ele>176.43</ele>
        <time>2018-01-25T09:45:06Z</time>
      </trkpt>
      <trkpt lat="43.47426" lon="1.21336">
        <ele>176.46</ele>
        <time>2018-01-25T09:45:09Z</time>
      </trkpt>
      <trkpt lat="43.47429" lon="1.21338">
        <ele>176.54</ele>
        <time>2018-01-25T09:45:12Z</time>
      </trkpt>
      <trkpt lat="43.47431" lon="1.21346">
        <ele>176.79</ele>
        <time>2018-01-25T09:45:17Z</time>
      </trkpt>
      <trkpt lat="43.4744" lon="1.21359">
        <ele>176.78</ele>
        <time>2018-01-25T09:45:28Z</time>
      </trkpt>
      <trkpt lat="43.47455" lon="1.21369">
        <ele>176.35</ele>
        <time>2018-01-25T09:45:40Z</time>
      </trkpt>
      <trkpt lat="43.47469" lon="1.21378">
        <ele>175.77</ele>
        <time>2018-01-25T09:45:51Z</time>
      </trkpt>
      <trkpt lat="43.47484" lon="1.21387">
        <ele>175.07</ele>
        <time>2018-01-25T09:46:04Z</time>
      </trkpt>
      <trkpt lat="43.4749" lon="1.21391">
        <ele>175.05</ele>
        <time>2018-01-25T09:46:09Z</time>
      </trkpt>
      <trkpt lat="43.47495" lon="1.21394">
        <ele>175.13</ele>
        <time>2018-01-25T09:46:17Z</time>
      </trkpt>
      <trkpt lat="43.475" lon="1.21396">
        <ele>175.27</ele>
        <time>2018-01-25T09:46:20Z</time>
      </trkpt>
      <trkpt lat="43.47513" lon="1.21407">
        <ele>175.49</ele>
        <time>2018-01-25T09:46:33Z</time>
      </trkpt>
      <trkpt lat="43.47515" lon="1.21409">
        <ele>175.44</ele>
        <time>2018-01-25T09:46:36Z</time>
      </trkpt>
      <trkpt lat="43.47521" lon="1.21417">
        <ele>175.23</ele>
        <time>2018-01-25T09:46:43Z</time>
      </trkpt>
      <trkpt lat="43.47528" lon="1.21422">
        <ele>174.62</ele>
        <time>2018-01-25T09:46:49Z</time>
      </trkpt>
      <trkpt lat="43.47542" lon="1.21404">
        <ele>173.28</ele>
        <time>2018-01-25T09:47:06Z</time>
      </trkpt>
      <trkpt lat="43.47541" lon="1.21395">
        <ele>173.31</ele>
        <time>2018-01-25T09:47:10Z</time>
      </trkpt>
      <trkpt lat="43.47541" lon="1.21386">
        <ele>173.47</ele>
        <time>2018-01-25T09:47:14Z</time>
      </trkpt>
      <trkpt lat="43.4754" lon="1.21345">
        <ele>174.94</ele>
        <time>2018-01-25T09:47:36Z</time>
      </trkpt>
      <trkpt lat="43.47538" lon="1.21324">
        <ele>175.98</ele>
        <time>2018-01-25T09:47:48Z</time>
      </trkpt>
      <trkpt lat="43.47533" lon="1.21314">
        <ele>176.44</ele>
        <time>2018-01-25T09:48:01Z</time>
      </trkpt>
      <trkpt lat="43.47534" lon="1.21313">
        <ele>176.7</ele>
        <time>2018-01-25T09:48:07Z</time>
      </trkpt>
      <trkpt lat="43.47536" lon="1.21305">
        <ele>176.83</ele>
        <time>2018-01-25T09:48:13Z</time>
      </trkpt>
      <trkpt lat="43.47535" lon="1.21291">
        <ele>176.88</ele>
        <time>2018-01-25T09:48:21Z</time>
      </trkpt>
      <trkpt lat="43.47535" lon="1.21273">
        <ele>177.06</ele>
        <time>2018-01-25T09:48:32Z</time>
      </trkpt>
      <trkpt lat="43.47533" lon="1.2127">
        <ele>177.13</ele>
        <time>2018-01-25T09:48:34Z</time>
      </trkpt>
      <trkpt lat="43.47531" lon="1.21261">
        <ele>177.45</ele>
        <time>2018-01-25T09:48:38Z</time>
      </trkpt>
      <trkpt lat="43.4753" lon="1.21258">
        <ele>177.52</ele>
        <time>2018-01-25T09:48:40Z</time>
      </trkpt>
      <trkpt lat="43.47528" lon="1.21252">
        <ele>177.6</ele>
        <time>2018-01-25T09:48:44Z</time>
      </trkpt>
      <trkpt lat="43.47528" lon="1.21249">
        <ele>177.68</ele>
        <time>2018-01-25T09:48:46Z</time>
      </trkpt>
      <trkpt lat="43.47526" lon="1.21243">
        <ele>177.99</ele>
        <time>2018-01-25T09:48:53Z</time>
      </trkpt>
      <trkpt lat="43.47524" lon="1.21223">
        <ele>178.35</ele>
        <time>2018-01-25T09:49:04Z</time>
      </trkpt>
      <trkpt lat="43.47524" lon="1.21221">
        <ele>178.39</ele>
        <time>2018-01-25T09:49:05Z</time>
      </trkpt>
      <trkpt lat="43.47523" lon="1.21206">
        <ele>179</ele>
        <time>2018-01-25T09:49:12Z</time>
      </trkpt>
      <trkpt lat="43.47521" lon="1.21181">
        <ele>180.11</ele>
        <time>2018-01-25T09:49:28Z</time>
      </trkpt>
      <trkpt lat="43.47514" lon="1.21147">
        <ele>180.55</ele>
        <time>2018-01-25T09:49:45Z</time>
      </trkpt>
      <trkpt lat="43.4751" lon="1.21121">
        <ele>181.52</ele>
        <time>2018-01-25T09:50:01Z</time>
      </trkpt>
      <trkpt lat="43.47506" lon="1.21106">
        <ele>182.22</ele>
        <time>2018-01-25T09:50:10Z</time>
      </trkpt>
      <trkpt lat="43.47504" lon="1.21094">
        <ele>182.57</ele>
        <time>2018-01-25T09:50:16Z</time>
      </trkpt>
      <trkpt lat="43.47495" lon="1.21068">
        <ele>183.64</ele>
        <time>2018-01-25T09:50:32Z</time>
      </trkpt>
      <trkpt lat="43.47492" lon="1.21057">
        <ele>183.85</ele>
        <time>2018-01-25T09:50:38Z</time>
      </trkpt>
      <trkpt lat="43.47481" lon="1.21027">
        <ele>184.6</ele>
        <time>2018-01-25T09:50:54Z</time>
      </trkpt>
      <trkpt lat="43.47477" lon="1.21003">
        <ele>186.49</ele>
        <time>2018-01-25T09:51:09Z</time>
      </trkpt>
      <trkpt lat="43.47467" lon="1.20972">
        <ele>187.99</ele>
        <time>2018-01-25T09:51:26Z</time>
      </trkpt>
      <trkpt lat="43.47465" lon="1.2095">
        <ele>189.15</ele>
        <time>2018-01-25T09:51:40Z</time>
      </trkpt>
      <trkpt lat="43.47456" lon="1.20923">
        <ele>189.1</ele>
        <time>2018-01-25T09:51:53Z</time>
      </trkpt>
      <trkpt lat="43.47452" lon="1.20914">
        <ele>189.37</ele>
        <time>2018-01-25T09:51:59Z</time>
      </trkpt>
      <trkpt lat="43.47447" lon="1.20908">
        <ele>189.68</ele>
        <time>2018-01-25T09:52:04Z</time>
      </trkpt>
      <trkpt lat="43.47444" lon="1.20905">
        <ele>190.01</ele>
        <time>2018-01-25T09:52:07Z</time>
      </trkpt>
      <trkpt lat="43.47432" lon="1.20892">
        <ele>190.98</ele>
        <time>2018-01-25T09:52:19Z</time>
      </trkpt>
      <trkpt lat="43.47425" lon="1.20884">
        <ele>191.26</ele>
        <time>2018-01-25T09:52:26Z</time>
      </trkpt>
      <trkpt lat="43.47413" lon="1.20871">
        <ele>192.22</ele>
        <time>2018-01-25T09:52:39Z</time>
      </trkpt>
      <trkpt lat="43.47409" lon="1.20865">
        <ele>192.38</ele>
        <time>2018-01-25T09:52:51Z</time>
      </trkpt>
      <trkpt lat="43.47407" lon="1.20864">
        <ele>192.5</ele>
        <time>2018-01-25T09:52:55Z</time>
      </trkpt>
      <trkpt lat="43.474" lon="1.20859">
        <ele>192.55</ele>
        <time>2018-01-25T09:53:03Z</time>
      </trkpt>
      <trkpt lat="43.47392" lon="1.20848">
        <ele>192.67</ele>
        <time>2018-01-25T09:53:11Z</time>
      </trkpt>
      <trkpt lat="43.47383" lon="1.20834">
        <ele>193.35</ele>
        <time>2018-01-25T09:53:21Z</time>
      </trkpt>
      <trkpt lat="43.47373" lon="1.20811">
        <ele>193.67</ele>
        <time>2018-01-25T09:53:35Z</time>
      </trkpt>
      <trkpt lat="43.4737" lon="1.20788">
        <ele>193.89</ele>
        <time>2018-01-25T09:53:50Z</time>
      </trkpt>
      <trkpt lat="43.4737" lon="1.20786">
        <ele>193.9</ele>
        <time>2018-01-25T09:53:51Z</time>
      </trkpt>
      <trkpt lat="43.47365" lon="1.20753">
        <ele>194.19</ele>
        <time>2018-01-25T09:54:08Z</time>
      </trkpt>
      <trkpt lat="43.47368" lon="1.20712">
        <ele>195.28</ele>
        <time>2018-01-25T09:54:30Z</time>
      </trkpt>
      <trkpt lat="43.47371" lon="1.20683">
        <ele>195.62</ele>
        <time>2018-01-25T09:54:45Z</time>
      </trkpt>
      <trkpt lat="43.47379" lon="1.20657">
        <ele>195.68</ele>
        <time>2018-01-25T09:55:00Z</time>
      </trkpt>
      <trkpt lat="43.47381" lon="1.20653">
        <ele>195.71</ele>
        <time>2018-01-25T09:55:02Z</time>
      </trkpt>
      <trkpt lat="43.47384" lon="1.20639">
        <ele>195.85</ele>
        <time>2018-01-25T09:55:11Z</time>
      </trkpt>
      <trkpt lat="43.47388" lon="1.20631">
        <ele>196.29</ele>
        <time>2018-01-25T09:55:16Z</time>
      </trkpt>
      <trkpt lat="43.47397" lon="1.20608">
        <ele>196.99</ele>
        <time>2018-01-25T09:55:31Z</time>
      </trkpt>
      <trkpt lat="43.474" lon="1.20602">
        <ele>196.96</ele>
        <time>2018-01-25T09:55:35Z</time>
      </trkpt>
      <trkpt lat="43.47402" lon="1.20593">
        <ele>196.96</ele>
        <time>2018-01-25T09:55:40Z</time>
      </trkpt>
      <trkpt lat="43.47403" lon="1.20581">
        <ele>197.27</ele>
        <time>2018-01-25T09:55:47Z</time>
      </trkpt>
      <trkpt lat="43.47416" lon="1.2055">
        <ele>197.54</ele>
        <time>2018-01-25T09:56:06Z</time>
      </trkpt>
      <trkpt lat="43.47427" lon="1.20522">
        <ele>197.35</ele>
        <time>2018-01-25T09:56:23Z</time>
      </trkpt>
      <trkpt lat="43.47438" lon="1.2049">
        <ele>197.49</ele>
        <time>2018-01-25T09:56:42Z</time>
      </trkpt>
      <trkpt lat="43.47453" lon="1.20478">
        <ele>197.8</ele>
        <time>2018-01-25T09:56:55Z</time>
      </trkpt>
      <trkpt lat="43.47475" lon="1.20475">
        <ele>197.79</ele>
        <time>2018-01-25T09:57:11Z</time>
      </trkpt>
      <trkpt lat="43.47499" lon="1.20471">
        <ele>197.99</ele>
        <time>2018-01-25T09:57:30Z</time>
      </trkpt>
      <trkpt lat="43.47521" lon="1.20467">
        <ele>198.11</ele>
        <time>2018-01-25T09:57:48Z</time>
      </trkpt>
      <trkpt lat="43.47544" lon="1.20459">
        <ele>198.1</ele>
        <time>2018-01-25T09:58:05Z</time>
      </trkpt>
      <trkpt lat="43.47562" lon="1.20452">
        <ele>198.08</ele>
        <time>2018-01-25T09:58:20Z</time>
      </trkpt>
      <trkpt lat="43.47577" lon="1.20443">
        <ele>198.15</ele>
        <time>2018-01-25T09:58:33Z</time>
      </trkpt>
      <trkpt lat="43.47601" lon="1.2043">
        <ele>197.69</ele>
        <time>2018-01-25T09:58:52Z</time>
      </trkpt>
      <trkpt lat="43.47629" lon="1.20424">
        <ele>197.6</ele>
        <time>2018-01-25T09:59:12Z</time>
      </trkpt>
      <trkpt lat="43.47639" lon="1.20422">
        <ele>197.44</ele>
        <time>2018-01-25T09:59:19Z</time>
      </trkpt>
      <trkpt lat="43.47659" lon="1.2042">
        <ele>197.54</ele>
        <time>2018-01-25T09:59:34Z</time>
      </trkpt>
      <trkpt lat="43.47684" lon="1.20417">
        <ele>197.91</ele>
        <time>2018-01-25T09:59:53Z</time>
      </trkpt>
      <trkpt lat="43.4771" lon="1.20414">
        <ele>197.59</ele>
        <time>2018-01-25T10:00:12Z</time>
      </trkpt>
      <trkpt lat="43.47733" lon="1.20416">
        <ele>197.69</ele>
        <time>2018-01-25T10:00:28Z</time>
      </trkpt>
      <trkpt lat="43.4775" lon="1.20419">
        <ele>197.4</ele>
        <time>2018-01-25T10:00:43Z</time>
      </trkpt>
      <trkpt lat="43.47764" lon="1.20422">
        <ele>197.3</ele>
        <time>2018-01-25T10:00:55Z</time>
      </trkpt>
      <trkpt lat="43.47796" lon="1.20418">
        <ele>197.33</ele>
        <time>2018-01-25T10:01:17Z</time>
      </trkpt>
      <trkpt lat="43.47819" lon="1.20406">
        <ele>197.35</ele>
        <time>2018-01-25T10:01:36Z</time>
      </trkpt>
      <trkpt lat="43.47839" lon="1.20388">
        <ele>197.26</ele>
        <time>2018-01-25T10:01:54Z</time>
      </trkpt>
      <trkpt lat="43.47851" lon="1.20375">
        <ele>197.46</ele>
        <time>2018-01-25T10:02:05Z</time>
      </trkpt>
      <trkpt lat="43.47856" lon="1.20369">
        <ele>197.73</ele>
        <time>2018-01-25T10:02:11Z</time>
      </trkpt>
      <trkpt lat="43.47866" lon="1.20357">
        <ele>197.96</ele>
        <time>2018-01-25T10:02:22Z</time>
      </trkpt>
      <trkpt lat="43.47867" lon="1.20354">
        <ele>197.97</ele>
        <time>2018-01-25T10:02:24Z</time>
      </trkpt>
      <trkpt lat="43.47878" lon="1.20331">
        <ele>198.2</ele>
        <time>2018-01-25T10:02:41Z</time>
      </trkpt>
      <trkpt lat="43.47892" lon="1.203">
        <ele>198.45</ele>
        <time>2018-01-25T10:03:01Z</time>
      </trkpt>
      <trkpt lat="43.47903" lon="1.20272">
        <ele>199.11</ele>
        <time>2018-01-25T10:03:19Z</time>
      </trkpt>
      <trkpt lat="43.47912" lon="1.20246">
        <ele>199.02</ele>
        <time>2018-01-25T10:03:35Z</time>
      </trkpt>
      <trkpt lat="43.47917" lon="1.20231">
        <ele>199.02</ele>
        <time>2018-01-25T10:03:44Z</time>
      </trkpt>
      <trkpt lat="43.47918" lon="1.20225">
        <ele>199.02</ele>
        <time>2018-01-25T10:03:48Z</time>
      </trkpt>
      <trkpt lat="43.47921" lon="1.20219">
        <ele>199.02</ele>
        <time>2018-01-25T10:03:52Z</time>
      </trkpt>
      <trkpt lat="43.47921" lon="1.20215">
        <ele>198.97</ele>
        <time>2018-01-25T10:03:54Z</time>
      </trkpt>
      <trkpt lat="43.47924" lon="1.20202">
        <ele>198.93</ele>
        <time>2018-01-25T10:04:02Z</time>
      </trkpt>
      <trkpt lat="43.47927" lon="1.20193">
        <ele>198.84</ele>
        <time>2018-01-25T10:04:07Z</time>
      </trkpt>
      <trkpt lat="43.47928" lon="1.20189">
        <ele>198.82</ele>
        <time>2018-01-25T10:04:09Z</time>
      </trkpt>
      <trkpt lat="43.47931" lon="1.20175">
        <ele>198.9</ele>
        <time>2018-01-25T10:04:16Z</time>
      </trkpt>
      <trkpt lat="43.47931" lon="1.20164">
        <ele>198.94</ele>
        <time>2018-01-25T10:04:23Z</time>
      </trkpt>
      <trkpt lat="43.47934" lon="1.20148">
        <ele>198.94</ele>
        <time>2018-01-25T10:04:31Z</time>
      </trkpt>
      <trkpt lat="43.47933" lon="1.20145">
        <ele>198.94</ele>
        <time>2018-01-25T10:04:33Z</time>
      </trkpt>
      <trkpt lat="43.47932" lon="1.20143">
        <ele>198.94</ele>
        <time>2018-01-25T10:04:34Z</time>
      </trkpt>
      <trkpt lat="43.47932" lon="1.20141">
        <ele>198.93</ele>
        <time>2018-01-25T10:04:35Z</time>
      </trkpt>
      <trkpt lat="43.47932" lon="1.20139">
        <ele>198.91</ele>
        <time>2018-01-25T10:04:36Z</time>
      </trkpt>
      <trkpt lat="43.47932" lon="1.20137">
        <ele>198.9</ele>
        <time>2018-01-25T10:04:37Z</time>
      </trkpt>
      <trkpt lat="43.47933" lon="1.20134">
        <ele>198.89</ele>
        <time>2018-01-25T10:04:39Z</time>
      </trkpt>
      <trkpt lat="43.47934" lon="1.20133">
        <ele>198.89</ele>
        <time>2018-01-25T10:04:40Z</time>
      </trkpt>
      <trkpt lat="43.47934" lon="1.20106">
        <ele>199.07</ele>
        <time>2018-01-25T10:04:55Z</time>
      </trkpt>
      <trkpt lat="43.47936" lon="1.20078">
        <ele>199.03</ele>
        <time>2018-01-25T10:05:12Z</time>
      </trkpt>
      <trkpt lat="43.47936" lon="1.20076">
        <ele>199.04</ele>
        <time>2018-01-25T10:05:13Z</time>
      </trkpt>
      <trkpt lat="43.47938" lon="1.20048">
        <ele>199.26</ele>
        <time>2018-01-25T10:05:27Z</time>
      </trkpt>
      <trkpt lat="43.47943" lon="1.20013">
        <ele>199.85</ele>
        <time>2018-01-25T10:05:46Z</time>
      </trkpt>
      <trkpt lat="43.47947" lon="1.19979">
        <ele>200.64</ele>
        <time>2018-01-25T10:06:04Z</time>
      </trkpt>
      <trkpt lat="43.47948" lon="1.19945">
        <ele>200.3</ele>
        <time>2018-01-25T10:06:21Z</time>
      </trkpt>
      <trkpt lat="43.47964" lon="1.19927">
        <ele>200.33</ele>
        <time>2018-01-25T10:06:37Z</time>
      </trkpt>
      <trkpt lat="43.47977" lon="1.19907">
        <ele>200.55</ele>
        <time>2018-01-25T10:06:53Z</time>
      </trkpt>
      <trkpt lat="43.47992" lon="1.199">
        <ele>200.72</ele>
        <time>2018-01-25T10:07:07Z</time>
      </trkpt>
      <trkpt lat="43.48014" lon="1.19886">
        <ele>200.73</ele>
        <time>2018-01-25T10:07:26Z</time>
      </trkpt>
      <trkpt lat="43.48028" lon="1.19877">
        <ele>200.6</ele>
        <time>2018-01-25T10:07:38Z</time>
      </trkpt>
      <trkpt lat="43.48029" lon="1.19877">
        <ele>200.6</ele>
        <time>2018-01-25T10:07:39Z</time>
      </trkpt>
      <trkpt lat="43.48049" lon="1.19874">
        <ele>200.59</ele>
        <time>2018-01-25T10:07:56Z</time>
      </trkpt>
      <trkpt lat="43.48071" lon="1.19873">
        <ele>200.37</ele>
        <time>2018-01-25T10:08:13Z</time>
      </trkpt>
      <trkpt lat="43.48078" lon="1.19873">
        <ele>200.32</ele>
        <time>2018-01-25T10:08:18Z</time>
      </trkpt>
      <trkpt lat="43.48079" lon="1.19873">
        <ele>200.31</ele>
        <time>2018-01-25T10:08:19Z</time>
      </trkpt>
      <trkpt lat="43.48094" lon="1.19869">
        <ele>200.05</ele>
        <time>2018-01-25T10:08:34Z</time>
      </trkpt>
      <trkpt lat="43.4812" lon="1.19869">
        <ele>199.87</ele>
        <time>2018-01-25T10:08:52Z</time>
      </trkpt>
      <trkpt lat="43.4813" lon="1.19867">
        <ele>199.97</ele>
        <time>2018-01-25T10:09:05Z</time>
      </trkpt>
      <trkpt lat="43.48155" lon="1.19863">
        <ele>199.48</ele>
        <time>2018-01-25T10:09:22Z</time>
      </trkpt>
      <trkpt lat="43.48185" lon="1.19855">
        <ele>197.57</ele>
        <time>2018-01-25T10:09:44Z</time>
      </trkpt>
      <trkpt lat="43.48208" lon="1.19851">
        <ele>195.85</ele>
        <time>2018-01-25T10:10:02Z</time>
      </trkpt>
      <trkpt lat="43.48231" lon="1.19845">
        <ele>194.1</ele>
        <time>2018-01-25T10:10:19Z</time>
      </trkpt>
      <trkpt lat="43.4825" lon="1.19838">
        <ele>192.91</ele>
        <time>2018-01-25T10:10:34Z</time>
      </trkpt>
      <trkpt lat="43.48268" lon="1.19833">
        <ele>191.41</ele>
        <time>2018-01-25T10:10:48Z</time>
      </trkpt>
      <trkpt lat="43.48273" lon="1.19831">
        <ele>190.94</ele>
        <time>2018-01-25T10:10:52Z</time>
      </trkpt>
      <trkpt lat="43.48288" lon="1.1983">
        <ele>189.23</ele>
        <time>2018-01-25T10:11:07Z</time>
      </trkpt>
      <trkpt lat="43.48297" lon="1.1983">
        <ele>188.47</ele>
        <time>2018-01-25T10:11:20Z</time>
      </trkpt>
      <trkpt lat="43.48302" lon="1.19846">
        <ele>187.23</ele>
        <time>2018-01-25T10:11:32Z</time>
      </trkpt>
      <trkpt lat="43.48304" lon="1.19848">
        <ele>187.13</ele>
        <time>2018-01-25T10:11:34Z</time>
      </trkpt>
      <trkpt lat="43.48311" lon="1.19854">
        <ele>187.02</ele>
        <time>2018-01-25T10:11:42Z</time>
      </trkpt>
      <trkpt lat="43.48331" lon="1.19866">
        <ele>186.82</ele>
        <time>2018-01-25T10:11:58Z</time>
      </trkpt>
      <trkpt lat="43.48348" lon="1.19886">
        <ele>187.22</ele>
        <time>2018-01-25T10:12:14Z</time>
      </trkpt>
      <trkpt lat="43.48358" lon="1.19894">
        <ele>187.92</ele>
        <time>2018-01-25T10:12:22Z</time>
      </trkpt>
      <trkpt lat="43.48363" lon="1.19899">
        <ele>187.98</ele>
        <time>2018-01-25T10:12:26Z</time>
      </trkpt>
      <trkpt lat="43.48369" lon="1.19911">
        <ele>187.92</ele>
        <time>2018-01-25T10:12:39Z</time>
      </trkpt>
      <trkpt lat="43.48398" lon="1.19946">
        <ele>187.62</ele>
        <time>2018-01-25T10:13:02Z</time>
      </trkpt>
      <trkpt lat="43.48412" lon="1.19964">
        <ele>187.26</ele>
        <time>2018-01-25T10:13:18Z</time>
      </trkpt>
      <trkpt lat="43.4842" lon="1.19977">
        <ele>186.94</ele>
        <time>2018-01-25T10:13:29Z</time>
      </trkpt>
      <trkpt lat="43.48428" lon="1.19989">
        <ele>186.18</ele>
        <time>2018-01-25T10:13:37Z</time>
      </trkpt>
      <trkpt lat="43.48433" lon="1.20004">
        <ele>185.43</ele>
        <time>2018-01-25T10:13:47Z</time>
      </trkpt>
      <trkpt lat="43.48444" lon="1.20024">
        <ele>184.03</ele>
        <time>2018-01-25T10:13:58Z</time>
      </trkpt>
      <trkpt lat="43.48448" lon="1.20043">
        <ele>182.99</ele>
        <time>2018-01-25T10:14:09Z</time>
      </trkpt>
      <trkpt lat="43.48453" lon="1.20055">
        <ele>182.07</ele>
        <time>2018-01-25T10:14:16Z</time>
      </trkpt>
      <trkpt lat="43.48454" lon="1.20058">
        <ele>181.94</ele>
        <time>2018-01-25T10:14:18Z</time>
      </trkpt>
      <trkpt lat="43.48455" lon="1.20075">
        <ele>180.95</ele>
        <time>2018-01-25T10:14:28Z</time>
      </trkpt>
      <trkpt lat="43.48457" lon="1.20083">
        <ele>180.58</ele>
        <time>2018-01-25T10:14:33Z</time>
      </trkpt>
      <trkpt lat="43.48458" lon="1.20087">
        <ele>180.49</ele>
        <time>2018-01-25T10:14:35Z</time>
      </trkpt>
      <trkpt lat="43.4846" lon="1.20108">
        <ele>179.93</ele>
        <time>2018-01-25T10:14:46Z</time>
      </trkpt>
      <trkpt lat="43.48464" lon="1.20125">
        <ele>179.4</ele>
        <time>2018-01-25T10:14:57Z</time>
      </trkpt>
      <trkpt lat="43.48468" lon="1.2014">
        <ele>179</ele>
        <time>2018-01-25T10:15:05Z</time>
      </trkpt>
      <trkpt lat="43.4847" lon="1.2015">
        <ele>178.81</ele>
        <time>2018-01-25T10:15:11Z</time>
      </trkpt>
      <trkpt lat="43.48474" lon="1.20169">
        <ele>178.43</ele>
        <time>2018-01-25T10:15:22Z</time>
      </trkpt>
      <trkpt lat="43.48476" lon="1.20173">
        <ele>178.16</ele>
        <time>2018-01-25T10:15:25Z</time>
      </trkpt>
      <trkpt lat="43.4848" lon="1.20192">
        <ele>177.82</ele>
        <time>2018-01-25T10:15:37Z</time>
      </trkpt>
      <trkpt lat="43.48481" lon="1.20197">
        <ele>177.79</ele>
        <time>2018-01-25T10:15:41Z</time>
      </trkpt>
      <trkpt lat="43.4848" lon="1.202">
        <ele>177.78</ele>
        <time>2018-01-25T10:15:43Z</time>
      </trkpt>
      <trkpt lat="43.48483" lon="1.20217">
        <ele>177.44</ele>
        <time>2018-01-25T10:15:54Z</time>
      </trkpt>
      <trkpt lat="43.48484" lon="1.2023">
        <ele>176.96</ele>
        <time>2018-01-25T10:16:01Z</time>
      </trkpt>
      <trkpt lat="43.48484" lon="1.20246">
        <ele>176.94</ele>
        <time>2018-01-25T10:16:09Z</time>
      </trkpt>
      <trkpt lat="43.48485" lon="1.20255">
        <ele>176.93</ele>
        <time>2018-01-25T10:16:14Z</time>
      </trkpt>
      <trkpt lat="43.48489" lon="1.20287">
        <ele>176.84</ele>
        <time>2018-01-25T10:16:32Z</time>
      </trkpt>
      <trkpt lat="43.4849" lon="1.20299">
        <ele>176.78</ele>
        <time>2018-01-25T10:16:37Z</time>
      </trkpt>
      <trkpt lat="43.48491" lon="1.2031">
        <ele>176.74</ele>
        <time>2018-01-25T10:16:43Z</time>
      </trkpt>
      <trkpt lat="43.48491" lon="1.20312">
        <ele>176.72</ele>
        <time>2018-01-25T10:16:45Z</time>
      </trkpt>
      <trkpt lat="43.48491" lon="1.20318">
        <ele>176.66</ele>
        <time>2018-01-25T10:16:49Z</time>
      </trkpt>
      <trkpt lat="43.48494" lon="1.20339">
        <ele>176.66</ele>
        <time>2018-01-25T10:17:00Z</time>
      </trkpt>
      <trkpt lat="43.48495" lon="1.20345">
        <ele>176.68</ele>
        <time>2018-01-25T10:17:03Z</time>
      </trkpt>
      <trkpt lat="43.48498" lon="1.20362">
        <ele>176.56</ele>
        <time>2018-01-25T10:17:13Z</time>
      </trkpt>
      <trkpt lat="43.485" lon="1.20381">
        <ele>176.13</ele>
        <time>2018-01-25T10:17:23Z</time>
      </trkpt>
      <trkpt lat="43.48501" lon="1.20389">
        <ele>175.99</ele>
        <time>2018-01-25T10:17:28Z</time>
      </trkpt>
      <trkpt lat="43.48502" lon="1.20394">
        <ele>175.85</ele>
        <time>2018-01-25T10:17:32Z</time>
      </trkpt>
      <trkpt lat="43.48507" lon="1.20417">
        <ele>175.5</ele>
        <time>2018-01-25T10:17:45Z</time>
      </trkpt>
      <trkpt lat="43.48508" lon="1.20418">
        <ele>175.48</ele>
        <time>2018-01-25T10:17:46Z</time>
      </trkpt>
      <trkpt lat="43.48509" lon="1.20425">
        <ele>175.36</ele>
        <time>2018-01-25T10:17:50Z</time>
      </trkpt>
      <trkpt lat="43.48512" lon="1.20436">
        <ele>175.26</ele>
        <time>2018-01-25T10:17:56Z</time>
      </trkpt>
      <trkpt lat="43.48516" lon="1.20449">
        <ele>175.25</ele>
        <time>2018-01-25T10:18:05Z</time>
      </trkpt>
      <trkpt lat="43.48524" lon="1.20484">
        <ele>175.36</ele>
        <time>2018-01-25T10:18:25Z</time>
      </trkpt>
      <trkpt lat="43.48536" lon="1.20514">
        <ele>175.22</ele>
        <time>2018-01-25T10:18:44Z</time>
      </trkpt>
      <trkpt lat="43.48544" lon="1.20531">
        <ele>174.9</ele>
        <time>2018-01-25T10:18:54Z</time>
      </trkpt>
      <trkpt lat="43.48546" lon="1.20533">
        <ele>174.89</ele>
        <time>2018-01-25T10:18:56Z</time>
      </trkpt>
      <trkpt lat="43.48551" lon="1.20548">
        <ele>174.81</ele>
        <time>2018-01-25T10:19:05Z</time>
      </trkpt>
      <trkpt lat="43.48553" lon="1.20562">
        <ele>174.94</ele>
        <time>2018-01-25T10:19:13Z</time>
      </trkpt>
      <trkpt lat="43.48554" lon="1.20565">
        <ele>174.95</ele>
        <time>2018-01-25T10:19:15Z</time>
      </trkpt>
      <trkpt lat="43.48558" lon="1.2058">
        <ele>175.08</ele>
        <time>2018-01-25T10:19:23Z</time>
      </trkpt>
      <trkpt lat="43.4856" lon="1.20583">
        <ele>175.09</ele>
        <time>2018-01-25T10:19:25Z</time>
      </trkpt>
      <trkpt lat="43.48562" lon="1.2059">
        <ele>175.09</ele>
        <time>2018-01-25T10:19:30Z</time>
      </trkpt>
      <trkpt lat="43.48563" lon="1.20594">
        <ele>175.09</ele>
        <time>2018-01-25T10:19:32Z</time>
      </trkpt>
      <trkpt lat="43.48564" lon="1.20603">
        <ele>175.06</ele>
        <time>2018-01-25T10:19:37Z</time>
      </trkpt>
      <trkpt lat="43.48567" lon="1.20621">
        <ele>174.92</ele>
        <time>2018-01-25T10:19:47Z</time>
      </trkpt>
      <trkpt lat="43.48567" lon="1.20628">
        <ele>174.83</ele>
        <time>2018-01-25T10:19:51Z</time>
      </trkpt>
      <trkpt lat="43.48567" lon="1.2064">
        <ele>174.74</ele>
        <time>2018-01-25T10:19:57Z</time>
      </trkpt>
      <trkpt lat="43.4857" lon="1.20648">
        <ele>174.67</ele>
        <time>2018-01-25T10:20:03Z</time>
      </trkpt>
      <trkpt lat="43.48572" lon="1.20669">
        <ele>174.62</ele>
        <time>2018-01-25T10:20:15Z</time>
      </trkpt>
      <trkpt lat="43.48578" lon="1.207">
        <ele>174.71</ele>
        <time>2018-01-25T10:20:31Z</time>
      </trkpt>
      <trkpt lat="43.48583" lon="1.20737">
        <ele>174.55</ele>
        <time>2018-01-25T10:20:52Z</time>
      </trkpt>
      <trkpt lat="43.48594" lon="1.20776">
        <ele>175.29</ele>
        <time>2018-01-25T10:21:13Z</time>
      </trkpt>
      <trkpt lat="43.48603" lon="1.20801">
        <ele>174.74</ele>
        <time>2018-01-25T10:21:29Z</time>
      </trkpt>
      <trkpt lat="43.4861" lon="1.20832">
        <ele>174.74</ele>
        <time>2018-01-25T10:21:46Z</time>
      </trkpt>
      <trkpt lat="43.48617" lon="1.20863">
        <ele>174.81</ele>
        <time>2018-01-25T10:22:04Z</time>
      </trkpt>
      <trkpt lat="43.48621" lon="1.20879">
        <ele>174.55</ele>
        <time>2018-01-25T10:22:13Z</time>
      </trkpt>
      <trkpt lat="43.48623" lon="1.20885">
        <ele>174.49</ele>
        <time>2018-01-25T10:22:17Z</time>
      </trkpt>
      <trkpt lat="43.48623" lon="1.2089">
        <ele>174.45</ele>
        <time>2018-01-25T10:22:20Z</time>
      </trkpt>
      <trkpt lat="43.48624" lon="1.20893">
        <ele>174.43</ele>
        <time>2018-01-25T10:22:22Z</time>
      </trkpt>
      <trkpt lat="43.48628" lon="1.20911">
        <ele>174.08</ele>
        <time>2018-01-25T10:22:33Z</time>
      </trkpt>
      <trkpt lat="43.48628" lon="1.20913">
        <ele>174.04</ele>
        <time>2018-01-25T10:22:34Z</time>
      </trkpt>
      <trkpt lat="43.48629" lon="1.20941">
        <ele>173.92</ele>
        <time>2018-01-25T10:22:49Z</time>
      </trkpt>
      <trkpt lat="43.4863" lon="1.20943">
        <ele>173.92</ele>
        <time>2018-01-25T10:22:50Z</time>
      </trkpt>
      <trkpt lat="43.48632" lon="1.2097">
        <ele>174.18</ele>
        <time>2018-01-25T10:23:04Z</time>
      </trkpt>
      <trkpt lat="43.48629" lon="1.2099">
        <ele>174.67</ele>
        <time>2018-01-25T10:23:15Z</time>
      </trkpt>
      <trkpt lat="43.4863" lon="1.21013">
        <ele>175.07</ele>
        <time>2018-01-25T10:23:28Z</time>
      </trkpt>
      <trkpt lat="43.48632" lon="1.21043">
        <ele>175.27</ele>
        <time>2018-01-25T10:23:44Z</time>
      </trkpt>
      <trkpt lat="43.48631" lon="1.21056">
        <ele>175.31</ele>
        <time>2018-01-25T10:23:51Z</time>
      </trkpt>
      <trkpt lat="43.48634" lon="1.21082">
        <ele>175.79</ele>
        <time>2018-01-25T10:24:06Z</time>
      </trkpt>
      <trkpt lat="43.48638" lon="1.21112">
        <ele>176.86</ele>
        <time>2018-01-25T10:24:23Z</time>
      </trkpt>
      <trkpt lat="43.4864" lon="1.21131">
        <ele>177.32</ele>
        <time>2018-01-25T10:24:33Z</time>
      </trkpt>
      <trkpt lat="43.48641" lon="1.21133">
        <ele>177.32</ele>
        <time>2018-01-25T10:24:34Z</time>
      </trkpt>
      <trkpt lat="43.48641" lon="1.21157">
        <ele>177.08</ele>
        <time>2018-01-25T10:24:48Z</time>
      </trkpt>
      <trkpt lat="43.48645" lon="1.2119">
        <ele>176.78</ele>
        <time>2018-01-25T10:25:07Z</time>
      </trkpt>
      <trkpt lat="43.48646" lon="1.2122">
        <ele>175.99</ele>
        <time>2018-01-25T10:25:24Z</time>
      </trkpt>
      <trkpt lat="43.48649" lon="1.21247">
        <ele>175.5</ele>
        <time>2018-01-25T10:25:39Z</time>
      </trkpt>
      <trkpt lat="43.48649" lon="1.21275">
        <ele>174.8</ele>
        <time>2018-01-25T10:25:53Z</time>
      </trkpt>
      <trkpt lat="43.48651" lon="1.21302">
        <ele>173.93</ele>
        <time>2018-01-25T10:26:09Z</time>
      </trkpt>
      <trkpt lat="43.4865" lon="1.21317">
        <ele>173.63</ele>
        <time>2018-01-25T10:26:17Z</time>
      </trkpt>
      <trkpt lat="43.48651" lon="1.21321">
        <ele>173.55</ele>
        <time>2018-01-25T10:26:19Z</time>
      </trkpt>
      <trkpt lat="43.48651" lon="1.21323">
        <ele>173.52</ele>
        <time>2018-01-25T10:26:20Z</time>
      </trkpt>
      <trkpt lat="43.48651" lon="1.21326">
        <ele>173.5</ele>
        <time>2018-01-25T10:26:21Z</time>
      </trkpt>
      <trkpt lat="43.4865" lon="1.21328">
        <ele>173.46</ele>
        <time>2018-01-25T10:26:22Z</time>
      </trkpt>
      <trkpt lat="43.4865" lon="1.21331">
        <ele>173.41</ele>
        <time>2018-01-25T10:26:23Z</time>
      </trkpt>
      <trkpt lat="43.4865" lon="1.21333">
        <ele>173.36</ele>
        <time>2018-01-25T10:26:24Z</time>
      </trkpt>
      <trkpt lat="43.4865" lon="1.21341">
        <ele>173.14</ele>
        <time>2018-01-25T10:26:28Z</time>
      </trkpt>
      <trkpt lat="43.4865" lon="1.2135">
        <ele>172.88</ele>
        <time>2018-01-25T10:26:33Z</time>
      </trkpt>
      <trkpt lat="43.48651" lon="1.21352">
        <ele>172.86</ele>
        <time>2018-01-25T10:26:34Z</time>
      </trkpt>
      <trkpt lat="43.48651" lon="1.21354">
        <ele>172.84</ele>
        <time>2018-01-25T10:26:35Z</time>
      </trkpt>
      <trkpt lat="43.48651" lon="1.21361">
        <ele>172.68</ele>
        <time>2018-01-25T10:26:39Z</time>
      </trkpt>
      <trkpt lat="43.4865" lon="1.21363">
        <ele>172.64</ele>
        <time>2018-01-25T10:26:40Z</time>
      </trkpt>
      <trkpt lat="43.4865" lon="1.21365">
        <ele>172.62</ele>
        <time>2018-01-25T10:26:41Z</time>
      </trkpt>
      <trkpt lat="43.4865" lon="1.21368">
        <ele>172.61</ele>
        <time>2018-01-25T10:26:42Z</time>
      </trkpt>
      <trkpt lat="43.4865" lon="1.2137">
        <ele>172.57</ele>
        <time>2018-01-25T10:26:43Z</time>
      </trkpt>
      <trkpt lat="43.48649" lon="1.21371">
        <ele>172.54</ele>
        <time>2018-01-25T10:26:44Z</time>
      </trkpt>
      <trkpt lat="43.48649" lon="1.21374">
        <ele>172.39</ele>
        <time>2018-01-25T10:26:46Z</time>
      </trkpt>
      <trkpt lat="43.48649" lon="1.21376">
        <ele>172.23</ele>
        <time>2018-01-25T10:26:47Z</time>
      </trkpt>
      <trkpt lat="43.48648" lon="1.21377">
        <ele>172.16</ele>
        <time>2018-01-25T10:26:48Z</time>
      </trkpt>
      <trkpt lat="43.48649" lon="1.21382">
        <ele>172.04</ele>
        <time>2018-01-25T10:26:51Z</time>
      </trkpt>
      <trkpt lat="43.48648" lon="1.214">
        <ele>171.84</ele>
        <time>2018-01-25T10:27:01Z</time>
      </trkpt>
      <trkpt lat="43.48649" lon="1.21402">
        <ele>171.84</ele>
        <time>2018-01-25T10:27:02Z</time>
      </trkpt>
      <trkpt lat="43.4865" lon="1.21411">
        <ele>171.76</ele>
        <time>2018-01-25T10:27:14Z</time>
      </trkpt>
      <trkpt lat="43.48651" lon="1.21419">
        <ele>171.89</ele>
        <time>2018-01-25T10:27:21Z</time>
      </trkpt>
      <trkpt lat="43.48651" lon="1.2142">
        <ele>171.89</ele>
        <time>2018-01-25T10:27:22Z</time>
      </trkpt>
      <trkpt lat="43.48651" lon="1.21422">
        <ele>171.9</ele>
        <time>2018-01-25T10:27:23Z</time>
      </trkpt>
      <trkpt lat="43.48651" lon="1.21424">
        <ele>171.92</ele>
        <time>2018-01-25T10:27:24Z</time>
      </trkpt>
      <trkpt lat="43.48651" lon="1.21426">
        <ele>171.95</ele>
        <time>2018-01-25T10:27:25Z</time>
      </trkpt>
      <trkpt lat="43.4865" lon="1.21428">
        <ele>171.96</ele>
        <time>2018-01-25T10:27:26Z</time>
      </trkpt>
      <trkpt lat="43.48648" lon="1.2143">
        <ele>171.97</ele>
        <time>2018-01-25T10:27:27Z</time>
      </trkpt>
      <trkpt lat="43.48643" lon="1.2144">
        <ele>171.45</ele>
        <time>2018-01-25T10:27:33Z</time>
      </trkpt>
      <trkpt lat="43.48642" lon="1.21442">
        <ele>171.2</ele>
        <time>2018-01-25T10:27:35Z</time>
      </trkpt>
      <trkpt lat="43.48641" lon="1.21444">
        <ele>171.13</ele>
        <time>2018-01-25T10:27:36Z</time>
      </trkpt>
      <trkpt lat="43.48639" lon="1.21448">
        <ele>170.92</ele>
        <time>2018-01-25T10:27:40Z</time>
      </trkpt>
      <trkpt lat="43.48639" lon="1.21449">
        <ele>170.86</ele>
        <time>2018-01-25T10:27:41Z</time>
      </trkpt>
      <trkpt lat="43.48638" lon="1.21451">
        <ele>170.78</ele>
        <time>2018-01-25T10:27:42Z</time>
      </trkpt>
      <trkpt lat="43.48634" lon="1.2146">
        <ele>170.52</ele>
        <time>2018-01-25T10:27:48Z</time>
      </trkpt>
      <trkpt lat="43.48632" lon="1.21462">
        <ele>170.51</ele>
        <time>2018-01-25T10:27:50Z</time>
      </trkpt>
      <trkpt lat="43.48631" lon="1.21464">
        <ele>170.51</ele>
        <time>2018-01-25T10:27:51Z</time>
      </trkpt>
      <trkpt lat="43.4863" lon="1.21466">
        <ele>170.52</ele>
        <time>2018-01-25T10:27:52Z</time>
      </trkpt>
      <trkpt lat="43.48627" lon="1.21472">
        <ele>170.64</ele>
        <time>2018-01-25T10:27:57Z</time>
      </trkpt>
      <trkpt lat="43.48623" lon="1.2148">
        <ele>170.63</ele>
        <time>2018-01-25T10:28:03Z</time>
      </trkpt>
      <trkpt lat="43.48623" lon="1.21482">
        <ele>170.63</ele>
        <time>2018-01-25T10:28:04Z</time>
      </trkpt>
      <trkpt lat="43.48622" lon="1.21483">
        <ele>170.63</ele>
        <time>2018-01-25T10:28:05Z</time>
      </trkpt>
      <trkpt lat="43.48622" lon="1.21485">
        <ele>170.63</ele>
        <time>2018-01-25T10:28:06Z</time>
      </trkpt>
      <trkpt lat="43.48611" lon="1.21507">
        <ele>170.15</ele>
        <time>2018-01-25T10:28:20Z</time>
      </trkpt>
      <trkpt lat="43.486" lon="1.2153">
        <ele>170.17</ele>
        <time>2018-01-25T10:28:35Z</time>
      </trkpt>
      <trkpt lat="43.48588" lon="1.21558">
        <ele>170.23</ele>
        <time>2018-01-25T10:28:54Z</time>
      </trkpt>
      <trkpt lat="43.48576" lon="1.21582">
        <ele>169.97</ele>
        <time>2018-01-25T10:29:12Z</time>
      </trkpt>
      <trkpt lat="43.48566" lon="1.21604">
        <ele>169.88</ele>
        <time>2018-01-25T10:29:27Z</time>
      </trkpt>
      <trkpt lat="43.48554" lon="1.21617">
        <ele>169.62</ele>
        <time>2018-01-25T10:29:41Z</time>
      </trkpt>
      <trkpt lat="43.48536" lon="1.21654">
        <ele>169.31</ele>
        <time>2018-01-25T10:30:07Z</time>
      </trkpt>
      <trkpt lat="43.48525" lon="1.21683">
        <ele>169.18</ele>
        <time>2018-01-25T10:30:28Z</time>
      </trkpt>
      <trkpt lat="43.48525" lon="1.21685">
        <ele>169.21</ele>
        <time>2018-01-25T10:30:29Z</time>
      </trkpt>
      <trkpt lat="43.48525" lon="1.21687">
        <ele>169.24</ele>
        <time>2018-01-25T10:30:30Z</time>
      </trkpt>
      <trkpt lat="43.48525" lon="1.21689">
        <ele>169.28</ele>
        <time>2018-01-25T10:30:31Z</time>
      </trkpt>
      <trkpt lat="43.48522" lon="1.2172">
        <ele>169.32</ele>
        <time>2018-01-25T10:30:47Z</time>
      </trkpt>
      <trkpt lat="43.48519" lon="1.21749">
        <ele>169.16</ele>
        <time>2018-01-25T10:31:03Z</time>
      </trkpt>
      <trkpt lat="43.48514" lon="1.21784">
        <ele>169.16</ele>
        <time>2018-01-25T10:31:22Z</time>
      </trkpt>
      <trkpt lat="43.4851" lon="1.21818">
        <ele>168.75</ele>
        <time>2018-01-25T10:31:40Z</time>
      </trkpt>
      <trkpt lat="43.48507" lon="1.21851">
        <ele>168.93</ele>
        <time>2018-01-25T10:31:58Z</time>
      </trkpt>
      <trkpt lat="43.48504" lon="1.21868">
        <ele>169.14</ele>
        <time>2018-01-25T10:32:08Z</time>
      </trkpt>
      <trkpt lat="43.48505" lon="1.21869">
        <ele>169.07</ele>
        <time>2018-01-25T10:32:09Z</time>
      </trkpt>
      <trkpt lat="43.48505" lon="1.21881">
        <ele>168.58</ele>
        <time>2018-01-25T10:32:16Z</time>
      </trkpt>
      <trkpt lat="43.48504" lon="1.21884">
        <ele>168.42</ele>
        <time>2018-01-25T10:32:18Z</time>
      </trkpt>
      <trkpt lat="43.48503" lon="1.21886">
        <ele>168.33</ele>
        <time>2018-01-25T10:32:19Z</time>
      </trkpt>
      <trkpt lat="43.48503" lon="1.21888">
        <ele>168.26</ele>
        <time>2018-01-25T10:32:20Z</time>
      </trkpt>
      <trkpt lat="43.48502" lon="1.21912">
        <ele>167.9</ele>
        <time>2018-01-25T10:32:34Z</time>
      </trkpt>
      <trkpt lat="43.48502" lon="1.21914">
        <ele>167.93</ele>
        <time>2018-01-25T10:32:35Z</time>
      </trkpt>
      <trkpt lat="43.48502" lon="1.21916">
        <ele>167.98</ele>
        <time>2018-01-25T10:32:36Z</time>
      </trkpt>
      <trkpt lat="43.48502" lon="1.21918">
        <ele>168.01</ele>
        <time>2018-01-25T10:32:37Z</time>
      </trkpt>
      <trkpt lat="43.48502" lon="1.2192">
        <ele>168.03</ele>
        <time>2018-01-25T10:32:38Z</time>
      </trkpt>
      <trkpt lat="43.48502" lon="1.21922">
        <ele>168.03</ele>
        <time>2018-01-25T10:32:39Z</time>
      </trkpt>
      <trkpt lat="43.48501" lon="1.21948">
        <ele>168.01</ele>
        <time>2018-01-25T10:32:54Z</time>
      </trkpt>
      <trkpt lat="43.485" lon="1.21957">
        <ele>168.15</ele>
        <time>2018-01-25T10:33:00Z</time>
      </trkpt>
      <trkpt lat="43.485" lon="1.21967">
        <ele>168.61</ele>
        <time>2018-01-25T10:33:07Z</time>
      </trkpt>
      <trkpt lat="43.48497" lon="1.21993">
        <ele>168.68</ele>
        <time>2018-01-25T10:33:21Z</time>
      </trkpt>
      <trkpt lat="43.48495" lon="1.22011">
        <ele>168.66</ele>
        <time>2018-01-25T10:33:32Z</time>
      </trkpt>
      <trkpt lat="43.48495" lon="1.22013">
        <ele>168.66</ele>
        <time>2018-01-25T10:33:33Z</time>
      </trkpt>
      <trkpt lat="43.48494" lon="1.22015">
        <ele>168.66</ele>
        <time>2018-01-25T10:33:34Z</time>
      </trkpt>
      <trkpt lat="43.48493" lon="1.22018">
        <ele>168.66</ele>
        <time>2018-01-25T10:33:35Z</time>
      </trkpt>
      <trkpt lat="43.48493" lon="1.22019">
        <ele>168.66</ele>
        <time>2018-01-25T10:33:36Z</time>
      </trkpt>
      <trkpt lat="43.48489" lon="1.2203">
        <ele>168.97</ele>
        <time>2018-01-25T10:33:52Z</time>
      </trkpt>
      <trkpt lat="43.48489" lon="1.22032">
        <ele>169.06</ele>
        <time>2018-01-25T10:33:53Z</time>
      </trkpt>
      <trkpt lat="43.48489" lon="1.22034">
        <ele>169.1</ele>
        <time>2018-01-25T10:33:54Z</time>
      </trkpt>
      <trkpt lat="43.48488" lon="1.22036">
        <ele>169.11</ele>
        <time>2018-01-25T10:33:55Z</time>
      </trkpt>
      <trkpt lat="43.48488" lon="1.22038">
        <ele>169.12</ele>
        <time>2018-01-25T10:33:56Z</time>
      </trkpt>
      <trkpt lat="43.48487" lon="1.2204">
        <ele>169.13</ele>
        <time>2018-01-25T10:33:57Z</time>
      </trkpt>
      <trkpt lat="43.48486" lon="1.22041">
        <ele>169.13</ele>
        <time>2018-01-25T10:33:58Z</time>
      </trkpt>
      <trkpt lat="43.48485" lon="1.22046">
        <ele>168.96</ele>
        <time>2018-01-25T10:34:02Z</time>
      </trkpt>
      <trkpt lat="43.48484" lon="1.22048">
        <ele>168.84</ele>
        <time>2018-01-25T10:34:03Z</time>
      </trkpt>
      <trkpt lat="43.48483" lon="1.2205">
        <ele>168.79</ele>
        <time>2018-01-25T10:34:04Z</time>
      </trkpt>
      <trkpt lat="43.48483" lon="1.22053">
        <ele>168.76</ele>
        <time>2018-01-25T10:34:05Z</time>
      </trkpt>
      <trkpt lat="43.48482" lon="1.22055">
        <ele>168.75</ele>
        <time>2018-01-25T10:34:06Z</time>
      </trkpt>
      <trkpt lat="43.48481" lon="1.22058">
        <ele>168.72</ele>
        <time>2018-01-25T10:34:07Z</time>
      </trkpt>
      <trkpt lat="43.48478" lon="1.22077">
        <ele>168.54</ele>
        <time>2018-01-25T10:34:17Z</time>
      </trkpt>
      <trkpt lat="43.48474" lon="1.22098">
        <ele>168.6</ele>
        <time>2018-01-25T10:34:30Z</time>
      </trkpt>
      <trkpt lat="43.48473" lon="1.22099">
        <ele>168.61</ele>
        <time>2018-01-25T10:34:31Z</time>
      </trkpt>
      <trkpt lat="43.48473" lon="1.22101">
        <ele>168.64</ele>
        <time>2018-01-25T10:34:32Z</time>
      </trkpt>
      <trkpt lat="43.48472" lon="1.22104">
        <ele>168.66</ele>
        <time>2018-01-25T10:34:34Z</time>
      </trkpt>
      <trkpt lat="43.48469" lon="1.22124">
        <ele>168.87</ele>
        <time>2018-01-25T10:34:48Z</time>
      </trkpt>
      <trkpt lat="43.48462" lon="1.22145">
        <ele>168.81</ele>
        <time>2018-01-25T10:35:01Z</time>
      </trkpt>
      <trkpt lat="43.48445" lon="1.22156">
        <ele>168.41</ele>
        <time>2018-01-25T10:35:18Z</time>
      </trkpt>
      <trkpt lat="43.48429" lon="1.22166">
        <ele>168.48</ele>
        <time>2018-01-25T10:35:32Z</time>
      </trkpt>
      <trkpt lat="43.48427" lon="1.22167">
        <ele>168.52</ele>
        <time>2018-01-25T10:35:33Z</time>
      </trkpt>
      <trkpt lat="43.48423" lon="1.22169">
        <ele>168.57</ele>
        <time>2018-01-25T10:35:36Z</time>
      </trkpt>
      <trkpt lat="43.48421" lon="1.22169">
        <ele>168.63</ele>
        <time>2018-01-25T10:35:37Z</time>
      </trkpt>
      <trkpt lat="43.4842" lon="1.22168">
        <ele>168.63</ele>
        <time>2018-01-25T10:35:38Z</time>
      </trkpt>
      <trkpt lat="43.48419" lon="1.22168">
        <ele>168.66</ele>
        <time>2018-01-25T10:35:39Z</time>
      </trkpt>
      <trkpt lat="43.48417" lon="1.22168">
        <ele>168.67</ele>
        <time>2018-01-25T10:35:40Z</time>
      </trkpt>
      <trkpt lat="43.48414" lon="1.2217">
        <ele>168.73</ele>
        <time>2018-01-25T10:35:43Z</time>
      </trkpt>
      <trkpt lat="43.48413" lon="1.22173">
        <ele>168.75</ele>
        <time>2018-01-25T10:35:44Z</time>
      </trkpt>
      <trkpt lat="43.48411" lon="1.22174">
        <ele>168.76</ele>
        <time>2018-01-25T10:35:46Z</time>
      </trkpt>
      <trkpt lat="43.4841" lon="1.22175">
        <ele>168.76</ele>
        <time>2018-01-25T10:35:47Z</time>
      </trkpt>
      <trkpt lat="43.48395" lon="1.22183">
        <ele>168.76</ele>
        <time>2018-01-25T10:36:01Z</time>
      </trkpt>
      <trkpt lat="43.48394" lon="1.22184">
        <ele>168.76</ele>
        <time>2018-01-25T10:36:02Z</time>
      </trkpt>
      <trkpt lat="43.48393" lon="1.22185">
        <ele>168.77</ele>
        <time>2018-01-25T10:36:03Z</time>
      </trkpt>
      <trkpt lat="43.48391" lon="1.22185">
        <ele>168.78</ele>
        <time>2018-01-25T10:36:04Z</time>
      </trkpt>
      <trkpt lat="43.4839" lon="1.22186">
        <ele>168.82</ele>
        <time>2018-01-25T10:36:05Z</time>
      </trkpt>
      <trkpt lat="43.48389" lon="1.22186">
        <ele>168.88</ele>
        <time>2018-01-25T10:36:06Z</time>
      </trkpt>
      <trkpt lat="43.48387" lon="1.22187">
        <ele>168.93</ele>
        <time>2018-01-25T10:36:07Z</time>
      </trkpt>
      <trkpt lat="43.48379" lon="1.22193">
        <ele>169.11</ele>
        <time>2018-01-25T10:36:14Z</time>
      </trkpt>
      <trkpt lat="43.48378" lon="1.22193">
        <ele>169.11</ele>
        <time>2018-01-25T10:36:15Z</time>
      </trkpt>
      <trkpt lat="43.48366" lon="1.22195">
        <ele>169.11</ele>
        <time>2018-01-25T10:36:25Z</time>
      </trkpt>
      <trkpt lat="43.48344" lon="1.22198">
        <ele>169.18</ele>
        <time>2018-01-25T10:36:43Z</time>
      </trkpt>
      <trkpt lat="43.4832" lon="1.22203">
        <ele>169.22</ele>
        <time>2018-01-25T10:37:03Z</time>
      </trkpt>
      <trkpt lat="43.483" lon="1.22208">
        <ele>169.42</ele>
        <time>2018-01-25T10:37:20Z</time>
      </trkpt>
      <trkpt lat="43.48276" lon="1.22213">
        <ele>169.54</ele>
        <time>2018-01-25T10:37:40Z</time>
      </trkpt>
      <trkpt lat="43.48249" lon="1.22217">
        <ele>169.37</ele>
        <time>2018-01-25T10:38:01Z</time>
      </trkpt>
      <trkpt lat="43.48248" lon="1.22217">
        <ele>169.34</ele>
        <time>2018-01-25T10:38:09Z</time>
      </trkpt>
      <trkpt lat="43.48243" lon="1.22218">
        <ele>169.34</ele>
        <time>2018-01-25T10:38:12Z</time>
      </trkpt>
      <trkpt lat="43.48241" lon="1.22218">
        <ele>169.34</ele>
        <time>2018-01-25T10:38:14Z</time>
      </trkpt>
      <trkpt lat="43.4824" lon="1.22218">
        <ele>169.33</ele>
        <time>2018-01-25T10:38:15Z</time>
      </trkpt>
      <trkpt lat="43.48238" lon="1.22218">
        <ele>169.33</ele>
        <time>2018-01-25T10:38:16Z</time>
      </trkpt>
      <trkpt lat="43.48237" lon="1.22219">
        <ele>169.33</ele>
        <time>2018-01-25T10:38:17Z</time>
      </trkpt>
      <trkpt lat="43.48235" lon="1.22219">
        <ele>169.33</ele>
        <time>2018-01-25T10:38:18Z</time>
      </trkpt>
      <trkpt lat="43.48226" lon="1.22219">
        <ele>169.32</ele>
        <time>2018-01-25T10:38:26Z</time>
      </trkpt>
      <trkpt lat="43.48207" lon="1.2222">
        <ele>169.01</ele>
        <time>2018-01-25T10:38:40Z</time>
      </trkpt>
      <trkpt lat="43.48185" lon="1.22225">
        <ele>169.17</ele>
        <time>2018-01-25T10:38:57Z</time>
      </trkpt>
      <trkpt lat="43.48161" lon="1.22228">
        <ele>169.23</ele>
        <time>2018-01-25T10:39:16Z</time>
      </trkpt>
      <trkpt lat="43.4814" lon="1.22229">
        <ele>169.23</ele>
        <time>2018-01-25T10:39:33Z</time>
      </trkpt>
      <trkpt lat="43.48129" lon="1.2223">
        <ele>169.58</ele>
        <time>2018-01-25T10:39:50Z</time>
      </trkpt>
      <trkpt lat="43.48127" lon="1.22228">
        <ele>169.78</ele>
        <time>2018-01-25T10:40:01Z</time>
      </trkpt>
      <trkpt lat="43.48126" lon="1.22228">
        <ele>169.76</ele>
        <time>2018-01-25T10:40:02Z</time>
      </trkpt>
      <trkpt lat="43.48125" lon="1.22228">
        <ele>169.74</ele>
        <time>2018-01-25T10:40:03Z</time>
      </trkpt>
      <trkpt lat="43.48123" lon="1.22228">
        <ele>169.73</ele>
        <time>2018-01-25T10:40:04Z</time>
      </trkpt>
      <trkpt lat="43.48121" lon="1.22228">
        <ele>169.73</ele>
        <time>2018-01-25T10:40:05Z</time>
      </trkpt>
      <trkpt lat="43.4812" lon="1.22228">
        <ele>169.72</ele>
        <time>2018-01-25T10:40:06Z</time>
      </trkpt>
      <trkpt lat="43.48116" lon="1.22229">
        <ele>169.66</ele>
        <time>2018-01-25T10:40:09Z</time>
      </trkpt>
      <trkpt lat="43.48115" lon="1.22229">
        <ele>169.63</ele>
        <time>2018-01-25T10:40:10Z</time>
      </trkpt>
      <trkpt lat="43.48113" lon="1.22229">
        <ele>169.58</ele>
        <time>2018-01-25T10:40:11Z</time>
      </trkpt>
      <trkpt lat="43.48112" lon="1.2223">
        <ele>169.53</ele>
        <time>2018-01-25T10:40:12Z</time>
      </trkpt>
      <trkpt lat="43.4811" lon="1.2223">
        <ele>169.51</ele>
        <time>2018-01-25T10:40:13Z</time>
      </trkpt>
      <trkpt lat="43.48109" lon="1.2223">
        <ele>169.46</ele>
        <time>2018-01-25T10:40:14Z</time>
      </trkpt>
      <trkpt lat="43.48108" lon="1.2223">
        <ele>169.43</ele>
        <time>2018-01-25T10:40:15Z</time>
      </trkpt>
      <trkpt lat="43.48106" lon="1.22231">
        <ele>169.4</ele>
        <time>2018-01-25T10:40:16Z</time>
      </trkpt>
      <trkpt lat="43.48105" lon="1.22231">
        <ele>169.38</ele>
        <time>2018-01-25T10:40:17Z</time>
      </trkpt>
      <trkpt lat="43.48104" lon="1.2223">
        <ele>169.38</ele>
        <time>2018-01-25T10:40:18Z</time>
      </trkpt>
      <trkpt lat="43.48081" lon="1.22234">
        <ele>169.08</ele>
        <time>2018-01-25T10:40:36Z</time>
      </trkpt>
      <trkpt lat="43.48059" lon="1.22242">
        <ele>169.02</ele>
        <time>2018-01-25T10:40:54Z</time>
      </trkpt>
      <trkpt lat="43.48039" lon="1.22254">
        <ele>169.48</ele>
        <time>2018-01-25T10:41:11Z</time>
      </trkpt>
      <trkpt lat="43.48018" lon="1.22268">
        <ele>169.44</ele>
        <time>2018-01-25T10:41:30Z</time>
      </trkpt>
      <trkpt lat="43.47997" lon="1.22282">
        <ele>169.26</ele>
        <time>2018-01-25T10:41:48Z</time>
      </trkpt>
      <trkpt lat="43.47973" lon="1.22287">
        <ele>169.17</ele>
        <time>2018-01-25T10:42:07Z</time>
      </trkpt>
      <trkpt lat="43.47971" lon="1.22288">
        <ele>169.14</ele>
        <time>2018-01-25T10:42:09Z</time>
      </trkpt>
      <trkpt lat="43.47952" lon="1.22293">
        <ele>169.38</ele>
        <time>2018-01-25T10:42:25Z</time>
      </trkpt>
      <trkpt lat="43.47951" lon="1.22293">
        <ele>169.39</ele>
        <time>2018-01-25T10:42:26Z</time>
      </trkpt>
      <trkpt lat="43.47946" lon="1.22293">
        <ele>169.39</ele>
        <time>2018-01-25T10:42:31Z</time>
      </trkpt>
      <trkpt lat="43.47944" lon="1.22293">
        <ele>169.46</ele>
        <time>2018-01-25T10:42:33Z</time>
      </trkpt>
      <trkpt lat="43.47942" lon="1.22293">
        <ele>169.5</ele>
        <time>2018-01-25T10:42:34Z</time>
      </trkpt>
      <trkpt lat="43.47941" lon="1.22293">
        <ele>169.52</ele>
        <time>2018-01-25T10:42:35Z</time>
      </trkpt>
      <trkpt lat="43.47939" lon="1.22293">
        <ele>169.54</ele>
        <time>2018-01-25T10:42:36Z</time>
      </trkpt>
      <trkpt lat="43.47938" lon="1.22293">
        <ele>169.57</ele>
        <time>2018-01-25T10:42:37Z</time>
      </trkpt>
      <trkpt lat="43.47937" lon="1.22294">
        <ele>169.6</ele>
        <time>2018-01-25T10:42:38Z</time>
      </trkpt>
      <trkpt lat="43.47935" lon="1.22293">
        <ele>169.63</ele>
        <time>2018-01-25T10:42:39Z</time>
      </trkpt>
      <trkpt lat="43.47934" lon="1.22293">
        <ele>169.64</ele>
        <time>2018-01-25T10:42:40Z</time>
      </trkpt>
      <trkpt lat="43.47933" lon="1.22292">
        <ele>169.65</ele>
        <time>2018-01-25T10:42:41Z</time>
      </trkpt>
      <trkpt lat="43.47931" lon="1.22291">
        <ele>169.66</ele>
        <time>2018-01-25T10:42:43Z</time>
      </trkpt>
      <trkpt lat="43.47929" lon="1.22293">
        <ele>169.73</ele>
        <time>2018-01-25T10:42:45Z</time>
      </trkpt>
      <trkpt lat="43.47927" lon="1.22293">
        <ele>169.78</ele>
        <time>2018-01-25T10:42:47Z</time>
      </trkpt>
      <trkpt lat="43.47925" lon="1.22292">
        <ele>169.79</ele>
        <time>2018-01-25T10:42:48Z</time>
      </trkpt>
      <trkpt lat="43.47924" lon="1.22293">
        <ele>169.8</ele>
        <time>2018-01-25T10:42:49Z</time>
      </trkpt>
      <trkpt lat="43.47922" lon="1.22293">
        <ele>169.8</ele>
        <time>2018-01-25T10:42:50Z</time>
      </trkpt>
      <trkpt lat="43.47921" lon="1.22293">
        <ele>169.8</ele>
        <time>2018-01-25T10:42:51Z</time>
      </trkpt>
      <trkpt lat="43.4792" lon="1.22293">
        <ele>169.8</ele>
        <time>2018-01-25T10:42:52Z</time>
      </trkpt>
      <trkpt lat="43.47918" lon="1.22294">
        <ele>169.8</ele>
        <time>2018-01-25T10:42:53Z</time>
      </trkpt>
      <trkpt lat="43.47916" lon="1.22295">
        <ele>169.8</ele>
        <time>2018-01-25T10:42:54Z</time>
      </trkpt>
      <trkpt lat="43.47915" lon="1.22294">
        <ele>169.8</ele>
        <time>2018-01-25T10:42:55Z</time>
      </trkpt>
      <trkpt lat="43.47912" lon="1.22293">
        <ele>169.79</ele>
        <time>2018-01-25T10:42:57Z</time>
      </trkpt>
      <trkpt lat="43.47911" lon="1.22294">
        <ele>169.79</ele>
        <time>2018-01-25T10:42:58Z</time>
      </trkpt>
      <trkpt lat="43.47907" lon="1.22295">
        <ele>169.79</ele>
        <time>2018-01-25T10:43:01Z</time>
      </trkpt>
      <trkpt lat="43.47904" lon="1.22295">
        <ele>169.79</ele>
        <time>2018-01-25T10:43:03Z</time>
      </trkpt>
      <trkpt lat="43.47904" lon="1.22294">
        <ele>169.79</ele>
        <time>2018-01-25T10:43:04Z</time>
      </trkpt>
      <trkpt lat="43.47902" lon="1.22293">
        <ele>169.79</ele>
        <time>2018-01-25T10:43:05Z</time>
      </trkpt>
      <trkpt lat="43.47898" lon="1.22295">
        <ele>169.84</ele>
        <time>2018-01-25T10:43:09Z</time>
      </trkpt>
      <trkpt lat="43.47897" lon="1.22294">
        <ele>169.87</ele>
        <time>2018-01-25T10:43:10Z</time>
      </trkpt>
      <trkpt lat="43.47896" lon="1.22294">
        <ele>169.93</ele>
        <time>2018-01-25T10:43:11Z</time>
      </trkpt>
      <trkpt lat="43.47895" lon="1.22293">
        <ele>169.98</ele>
        <time>2018-01-25T10:43:12Z</time>
      </trkpt>
      <trkpt lat="43.47893" lon="1.22293">
        <ele>170.1</ele>
        <time>2018-01-25T10:43:14Z</time>
      </trkpt>
      <trkpt lat="43.47886" lon="1.22294">
        <ele>170.17</ele>
        <time>2018-01-25T10:43:20Z</time>
      </trkpt>
      <trkpt lat="43.47885" lon="1.22293">
        <ele>170.18</ele>
        <time>2018-01-25T10:43:21Z</time>
      </trkpt>
      <trkpt lat="43.47882" lon="1.22293">
        <ele>170.18</ele>
        <time>2018-01-25T10:43:23Z</time>
      </trkpt>
      <trkpt lat="43.4788" lon="1.22294">
        <ele>170.17</ele>
        <time>2018-01-25T10:43:24Z</time>
      </trkpt>
      <trkpt lat="43.47879" lon="1.22294">
        <ele>170.07</ele>
        <time>2018-01-25T10:43:25Z</time>
      </trkpt>
      <trkpt lat="43.47877" lon="1.22294">
        <ele>170.07</ele>
        <time>2018-01-25T10:43:26Z</time>
      </trkpt>
      <trkpt lat="43.47876" lon="1.22293">
        <ele>170.04</ele>
        <time>2018-01-25T10:43:27Z</time>
      </trkpt>
      <trkpt lat="43.47875" lon="1.22293">
        <ele>170.03</ele>
        <time>2018-01-25T10:43:28Z</time>
      </trkpt>
      <trkpt lat="43.47874" lon="1.22292">
        <ele>170.01</ele>
        <time>2018-01-25T10:43:29Z</time>
      </trkpt>
      <trkpt lat="43.47872" lon="1.22292">
        <ele>169.96</ele>
        <time>2018-01-25T10:43:31Z</time>
      </trkpt>
      <trkpt lat="43.47871" lon="1.22292">
        <ele>169.93</ele>
        <time>2018-01-25T10:43:32Z</time>
      </trkpt>
      <trkpt lat="43.4787" lon="1.22293">
        <ele>169.91</ele>
        <time>2018-01-25T10:43:33Z</time>
      </trkpt>
      <trkpt lat="43.47869" lon="1.22293">
        <ele>169.87</ele>
        <time>2018-01-25T10:43:34Z</time>
      </trkpt>
      <trkpt lat="43.47868" lon="1.22293">
        <ele>169.85</ele>
        <time>2018-01-25T10:43:35Z</time>
      </trkpt>
      <trkpt lat="43.47866" lon="1.22293">
        <ele>169.84</ele>
        <time>2018-01-25T10:43:36Z</time>
      </trkpt>
      <trkpt lat="43.47865" lon="1.22292">
        <ele>169.83</ele>
        <time>2018-01-25T10:43:37Z</time>
      </trkpt>
      <trkpt lat="43.47864" lon="1.22292">
        <ele>169.83</ele>
        <time>2018-01-25T10:43:38Z</time>
      </trkpt>
      <trkpt lat="43.4786" lon="1.22292">
        <ele>169.85</ele>
        <time>2018-01-25T10:43:41Z</time>
      </trkpt>
      <trkpt lat="43.47859" lon="1.22293">
        <ele>169.92</ele>
        <time>2018-01-25T10:43:42Z</time>
      </trkpt>
      <trkpt lat="43.47858" lon="1.22293">
        <ele>169.96</ele>
        <time>2018-01-25T10:43:43Z</time>
      </trkpt>
      <trkpt lat="43.47857" lon="1.22292">
        <ele>170.02</ele>
        <time>2018-01-25T10:43:44Z</time>
      </trkpt>
      <trkpt lat="43.47856" lon="1.22292">
        <ele>170.05</ele>
        <time>2018-01-25T10:43:45Z</time>
      </trkpt>
      <trkpt lat="43.47854" lon="1.22291">
        <ele>170.07</ele>
        <time>2018-01-25T10:43:46Z</time>
      </trkpt>
      <trkpt lat="43.47853" lon="1.22291">
        <ele>170.1</ele>
        <time>2018-01-25T10:43:47Z</time>
      </trkpt>
      <trkpt lat="43.47852" lon="1.22291">
        <ele>170.12</ele>
        <time>2018-01-25T10:43:48Z</time>
      </trkpt>
      <trkpt lat="43.47843" lon="1.2229">
        <ele>170.32</ele>
        <time>2018-01-25T10:43:55Z</time>
      </trkpt>
      <trkpt lat="43.47842" lon="1.22289">
        <ele>170.32</ele>
        <time>2018-01-25T10:43:56Z</time>
      </trkpt>
      <trkpt lat="43.4784" lon="1.22289">
        <ele>170.32</ele>
        <time>2018-01-25T10:43:57Z</time>
      </trkpt>
      <trkpt lat="43.47839" lon="1.22289">
        <ele>170.33</ele>
        <time>2018-01-25T10:43:58Z</time>
      </trkpt>
      <trkpt lat="43.47837" lon="1.22289">
        <ele>170.38</ele>
        <time>2018-01-25T10:43:59Z</time>
      </trkpt>
      <trkpt lat="43.47836" lon="1.22289">
        <ele>170.35</ele>
        <time>2018-01-25T10:44:00Z</time>
      </trkpt>
      <trkpt lat="43.47835" lon="1.22288">
        <ele>170.35</ele>
        <time>2018-01-25T10:44:01Z</time>
      </trkpt>
      <trkpt lat="43.47833" lon="1.22288">
        <ele>170.32</ele>
        <time>2018-01-25T10:44:02Z</time>
      </trkpt>
      <trkpt lat="43.47813" lon="1.22287">
        <ele>169.88</ele>
        <time>2018-01-25T10:44:18Z</time>
      </trkpt>
      <trkpt lat="43.47792" lon="1.22287">
        <ele>169.44</ele>
        <time>2018-01-25T10:44:34Z</time>
      </trkpt>
      <trkpt lat="43.47767" lon="1.22288">
        <ele>169.65</ele>
        <time>2018-01-25T10:44:54Z</time>
      </trkpt>
      <trkpt lat="43.47753" lon="1.22285">
        <ele>170.04</ele>
        <time>2018-01-25T10:45:05Z</time>
      </trkpt>
      <trkpt lat="43.47741" lon="1.22279">
        <ele>170.1</ele>
        <time>2018-01-25T10:45:18Z</time>
      </trkpt>
      <trkpt lat="43.47738" lon="1.22278">
        <ele>170.11</ele>
        <time>2018-01-25T10:45:20Z</time>
      </trkpt>
      <trkpt lat="43.47736" lon="1.22278">
        <ele>170.18</ele>
        <time>2018-01-25T10:45:21Z</time>
      </trkpt>
      <trkpt lat="43.47735" lon="1.22277">
        <ele>170.21</ele>
        <time>2018-01-25T10:45:22Z</time>
      </trkpt>
      <trkpt lat="43.47734" lon="1.22277">
        <ele>170.25</ele>
        <time>2018-01-25T10:45:23Z</time>
      </trkpt>
      <trkpt lat="43.47733" lon="1.22277">
        <ele>170.28</ele>
        <time>2018-01-25T10:45:24Z</time>
      </trkpt>
      <trkpt lat="43.47733" lon="1.22277">
        <ele>170.31</ele>
        <time>2018-01-25T10:45:25Z</time>
      </trkpt>
      <trkpt lat="43.47732" lon="1.22277">
        <ele>170.32</ele>
        <time>2018-01-25T10:45:26Z</time>
      </trkpt>
      <trkpt lat="43.4773" lon="1.22276">
        <ele>170.33</ele>
        <time>2018-01-25T10:45:27Z</time>
      </trkpt>
      <trkpt lat="43.47729" lon="1.22276">
        <ele>170.33</ele>
        <time>2018-01-25T10:45:28Z</time>
      </trkpt>
      <trkpt lat="43.47728" lon="1.22276">
        <ele>170.33</ele>
        <time>2018-01-25T10:45:29Z</time>
      </trkpt>
      <trkpt lat="43.47727" lon="1.22275">
        <ele>170.33</ele>
        <time>2018-01-25T10:45:30Z</time>
      </trkpt>
      <trkpt lat="43.47706" lon="1.2227">
        <ele>170.49</ele>
        <time>2018-01-25T10:45:47Z</time>
      </trkpt>
      <trkpt lat="43.47685" lon="1.22268">
        <ele>170.42</ele>
        <time>2018-01-25T10:46:03Z</time>
      </trkpt>
      <trkpt lat="43.47671" lon="1.22263">
        <ele>170.66</ele>
        <time>2018-01-25T10:46:15Z</time>
      </trkpt>
      <trkpt lat="43.4767" lon="1.22262">
        <ele>170.75</ele>
        <time>2018-01-25T10:46:16Z</time>
      </trkpt>
      <trkpt lat="43.4767" lon="1.2226">
        <ele>170.8</ele>
        <time>2018-01-25T10:46:17Z</time>
      </trkpt>
      <trkpt lat="43.47669" lon="1.22259">
        <ele>170.88</ele>
        <time>2018-01-25T10:46:18Z</time>
      </trkpt>
      <trkpt lat="43.47668" lon="1.22258">
        <ele>170.9</ele>
        <time>2018-01-25T10:46:19Z</time>
      </trkpt>
      <trkpt lat="43.47665" lon="1.22255">
        <ele>170.93</ele>
        <time>2018-01-25T10:46:22Z</time>
      </trkpt>
      <trkpt lat="43.47664" lon="1.22253">
        <ele>170.97</ele>
        <time>2018-01-25T10:46:23Z</time>
      </trkpt>
      <trkpt lat="43.47662" lon="1.22237">
        <ele>170.96</ele>
        <time>2018-01-25T10:46:32Z</time>
      </trkpt>
      <trkpt lat="43.47662" lon="1.22236">
        <ele>170.95</ele>
        <time>2018-01-25T10:46:33Z</time>
      </trkpt>
      <trkpt lat="43.47662" lon="1.22234">
        <ele>170.94</ele>
        <time>2018-01-25T10:46:34Z</time>
      </trkpt>
      <trkpt lat="43.47657" lon="1.22214">
        <ele>171.08</ele>
        <time>2018-01-25T10:46:48Z</time>
      </trkpt>
      <trkpt lat="43.47655" lon="1.22211">
        <ele>171.12</ele>
        <time>2018-01-25T10:46:51Z</time>
      </trkpt>
      <trkpt lat="43.47654" lon="1.2221">
        <ele>171.12</ele>
        <time>2018-01-25T10:46:52Z</time>
      </trkpt>
      <trkpt lat="43.4764" lon="1.22205">
        <ele>170.85</ele>
        <time>2018-01-25T10:47:03Z</time>
      </trkpt>
      <trkpt lat="43.47621" lon="1.22193">
        <ele>170.74</ele>
        <time>2018-01-25T10:47:20Z</time>
      </trkpt>
      <trkpt lat="43.47602" lon="1.22187">
        <ele>170.7</ele>
        <time>2018-01-25T10:47:37Z</time>
      </trkpt>
      <trkpt lat="43.47583" lon="1.22185">
        <ele>170.75</ele>
        <time>2018-01-25T10:47:51Z</time>
      </trkpt>
      <trkpt lat="43.47558" lon="1.22182">
        <ele>170.91</ele>
        <time>2018-01-25T10:48:10Z</time>
      </trkpt>
      <trkpt lat="43.47548" lon="1.2218">
        <ele>170.98</ele>
        <time>2018-01-25T10:48:19Z</time>
      </trkpt>
      <trkpt lat="43.47546" lon="1.22179">
        <ele>170.98</ele>
        <time>2018-01-25T10:48:20Z</time>
      </trkpt>
      <trkpt lat="43.47527" lon="1.22176">
        <ele>171</ele>
        <time>2018-01-25T10:48:35Z</time>
      </trkpt>
      <trkpt lat="43.47508" lon="1.22176">
        <ele>171.35</ele>
        <time>2018-01-25T10:48:50Z</time>
      </trkpt>
      <trkpt lat="43.47492" lon="1.22173">
        <ele>171.31</ele>
        <time>2018-01-25T10:49:04Z</time>
      </trkpt>
      <trkpt lat="43.47474" lon="1.22168">
        <ele>171.41</ele>
        <time>2018-01-25T10:49:19Z</time>
      </trkpt>
      <trkpt lat="43.47473" lon="1.22167">
        <ele>171.44</ele>
        <time>2018-01-25T10:49:20Z</time>
      </trkpt>
      <trkpt lat="43.47472" lon="1.22166">
        <ele>171.46</ele>
        <time>2018-01-25T10:49:21Z</time>
      </trkpt>
      <trkpt lat="43.47471" lon="1.22165">
        <ele>171.48</ele>
        <time>2018-01-25T10:49:22Z</time>
      </trkpt>
      <trkpt lat="43.47468" lon="1.22163">
        <ele>171.56</ele>
        <time>2018-01-25T10:49:25Z</time>
      </trkpt>
      <trkpt lat="43.47455" lon="1.22157">
        <ele>171.59</ele>
        <time>2018-01-25T10:49:35Z</time>
      </trkpt>
      <trkpt lat="43.47433" lon="1.22145">
        <ele>171.65</ele>
        <time>2018-01-25T10:49:53Z</time>
      </trkpt>
      <trkpt lat="43.47432" lon="1.22144">
        <ele>171.65</ele>
        <time>2018-01-25T10:49:54Z</time>
      </trkpt>
      <trkpt lat="43.47431" lon="1.22144">
        <ele>171.65</ele>
        <time>2018-01-25T10:49:55Z</time>
      </trkpt>
      <trkpt lat="43.47429" lon="1.22143">
        <ele>171.65</ele>
        <time>2018-01-25T10:49:56Z</time>
      </trkpt>
      <trkpt lat="43.47428" lon="1.22143">
        <ele>171.65</ele>
        <time>2018-01-25T10:49:57Z</time>
      </trkpt>
      <trkpt lat="43.47414" lon="1.22133">
        <ele>171.58</ele>
        <time>2018-01-25T10:50:10Z</time>
      </trkpt>
      <trkpt lat="43.47402" lon="1.22115">
        <ele>172.02</ele>
        <time>2018-01-25T10:50:25Z</time>
      </trkpt>
      <trkpt lat="43.47401" lon="1.22114">
        <ele>172.03</ele>
        <time>2018-01-25T10:50:26Z</time>
      </trkpt>
      <trkpt lat="43.474" lon="1.22112">
        <ele>172.05</ele>
        <time>2018-01-25T10:50:27Z</time>
      </trkpt>
      <trkpt lat="43.474" lon="1.2211">
        <ele>172.06</ele>
        <time>2018-01-25T10:50:28Z</time>
      </trkpt>
      <trkpt lat="43.47399" lon="1.22109">
        <ele>172.07</ele>
        <time>2018-01-25T10:50:29Z</time>
      </trkpt>
      <trkpt lat="43.47397" lon="1.22109">
        <ele>172.06</ele>
        <time>2018-01-25T10:50:30Z</time>
      </trkpt>
      <trkpt lat="43.47387" lon="1.22106">
        <ele>171.98</ele>
        <time>2018-01-25T10:50:38Z</time>
      </trkpt>
      <trkpt lat="43.47371" lon="1.22101">
        <ele>171.82</ele>
        <time>2018-01-25T10:50:52Z</time>
      </trkpt>
      <trkpt lat="43.47357" lon="1.22096">
        <ele>171.82</ele>
        <time>2018-01-25T10:51:04Z</time>
      </trkpt>
      <trkpt lat="43.47339" lon="1.22082">
        <ele>172.1</ele>
        <time>2018-01-25T10:51:21Z</time>
      </trkpt>
      <trkpt lat="43.47325" lon="1.22066">
        <ele>172.07</ele>
        <time>2018-01-25T10:51:36Z</time>
      </trkpt>
      <trkpt lat="43.47309" lon="1.22053">
        <ele>172.13</ele>
        <time>2018-01-25T10:51:51Z</time>
      </trkpt>
      <trkpt lat="43.47296" lon="1.22038">
        <ele>171.85</ele>
        <time>2018-01-25T10:52:05Z</time>
      </trkpt>
      <trkpt lat="43.47279" lon="1.22024">
        <ele>171.64</ele>
        <time>2018-01-25T10:52:20Z</time>
      </trkpt>
      <trkpt lat="43.47262" lon="1.22009">
        <ele>171.77</ele>
        <time>2018-01-25T10:52:36Z</time>
      </trkpt>
      <trkpt lat="43.47242" lon="1.21998">
        <ele>171.77</ele>
        <time>2018-01-25T10:52:52Z</time>
      </trkpt>
      <trkpt lat="43.47223" lon="1.21989">
        <ele>171.98</ele>
        <time>2018-01-25T10:53:07Z</time>
      </trkpt>
      <trkpt lat="43.47205" lon="1.2198">
        <ele>171.97</ele>
        <time>2018-01-25T10:53:22Z</time>
      </trkpt>
      <trkpt lat="43.47201" lon="1.21975">
        <ele>172.08</ele>
        <time>2018-01-25T10:53:27Z</time>
      </trkpt>
      <trkpt lat="43.47198" lon="1.21968">
        <ele>172.1</ele>
        <time>2018-01-25T10:53:31Z</time>
      </trkpt>
      <trkpt lat="43.47198" lon="1.21966">
        <ele>172.1</ele>
        <time>2018-01-25T10:53:32Z</time>
      </trkpt>
      <trkpt lat="43.47197" lon="1.21965">
        <ele>172.1</ele>
        <time>2018-01-25T10:53:33Z</time>
      </trkpt>
      <trkpt lat="43.47197" lon="1.21963">
        <ele>172.1</ele>
        <time>2018-01-25T10:53:34Z</time>
      </trkpt>
      <trkpt lat="43.47197" lon="1.21961">
        <ele>172.1</ele>
        <time>2018-01-25T10:53:35Z</time>
      </trkpt>
      <trkpt lat="43.47196" lon="1.2196">
        <ele>172.1</ele>
        <time>2018-01-25T10:53:36Z</time>
      </trkpt>
      <trkpt lat="43.47196" lon="1.21958">
        <ele>172.1</ele>
        <time>2018-01-25T10:53:37Z</time>
      </trkpt>
      <trkpt lat="43.47195" lon="1.21956">
        <ele>172.12</ele>
        <time>2018-01-25T10:53:38Z</time>
      </trkpt>
      <trkpt lat="43.47195" lon="1.21955">
        <ele>172.13</ele>
        <time>2018-01-25T10:53:39Z</time>
      </trkpt>
      <trkpt lat="43.47194" lon="1.21953">
        <ele>172.14</ele>
        <time>2018-01-25T10:53:40Z</time>
      </trkpt>
      <trkpt lat="43.47194" lon="1.21952">
        <ele>172.16</ele>
        <time>2018-01-25T10:53:41Z</time>
      </trkpt>
      <trkpt lat="43.4719" lon="1.21926">
        <ele>172.57</ele>
        <time>2018-01-25T10:53:57Z</time>
      </trkpt>
      <trkpt lat="43.47183" lon="1.21899">
        <ele>172.57</ele>
        <time>2018-01-25T10:54:13Z</time>
      </trkpt>
      <trkpt lat="43.47182" lon="1.21896">
        <ele>172.58</ele>
        <time>2018-01-25T10:54:15Z</time>
      </trkpt>
      <trkpt lat="43.47177" lon="1.21874">
        <ele>172.98</ele>
        <time>2018-01-25T10:54:29Z</time>
      </trkpt>
      <trkpt lat="43.47162" lon="1.21858">
        <ele>173.28</ele>
        <time>2018-01-25T10:54:46Z</time>
      </trkpt>
      <trkpt lat="43.47161" lon="1.21859">
        <ele>173.32</ele>
        <time>2018-01-25T10:54:47Z</time>
      </trkpt>
      <trkpt lat="43.4716" lon="1.2186">
        <ele>173.36</ele>
        <time>2018-01-25T10:54:48Z</time>
      </trkpt>
      <trkpt lat="43.47159" lon="1.2186">
        <ele>173.45</ele>
        <time>2018-01-25T10:54:49Z</time>
      </trkpt>
      <trkpt lat="43.47147" lon="1.21869">
        <ele>173.73</ele>
        <time>2018-01-25T10:55:02Z</time>
      </trkpt>
      <trkpt lat="43.4712" lon="1.21881">
        <ele>173.55</ele>
        <time>2018-01-25T10:55:27Z</time>
      </trkpt>
      <trkpt lat="43.47086" lon="1.219">
        <ele>173.44</ele>
        <time>2018-01-25T10:55:54Z</time>
      </trkpt>
      <trkpt lat="43.47057" lon="1.21914">
        <ele>173.36</ele>
        <time>2018-01-25T10:56:20Z</time>
      </trkpt>
      <trkpt lat="43.47048" lon="1.21922">
        <ele>172.72</ele>
        <time>2018-01-25T10:56:29Z</time>
      </trkpt>
      <trkpt lat="43.47047" lon="1.21923">
        <ele>172.71</ele>
        <time>2018-01-25T10:56:30Z</time>
      </trkpt>
      <trkpt lat="43.47024" lon="1.21945">
        <ele>172.98</ele>
        <time>2018-01-25T10:56:48Z</time>
      </trkpt>
      <trkpt lat="43.47003" lon="1.21962">
        <ele>173.23</ele>
        <time>2018-01-25T10:57:04Z</time>
      </trkpt>
      <trkpt lat="43.46983" lon="1.21979">
        <ele>172.86</ele>
        <time>2018-01-25T10:57:23Z</time>
      </trkpt>
      <trkpt lat="43.46964" lon="1.21993">
        <ele>173.19</ele>
        <time>2018-01-25T10:57:39Z</time>
      </trkpt>
      <trkpt lat="43.46942" lon="1.22011">
        <ele>173.05</ele>
        <time>2018-01-25T10:57:58Z</time>
      </trkpt>
      <trkpt lat="43.46924" lon="1.22023">
        <ele>173.21</ele>
        <time>2018-01-25T10:58:14Z</time>
      </trkpt>
      <trkpt lat="43.46906" lon="1.22035">
        <ele>173.21</ele>
        <time>2018-01-25T10:58:29Z</time>
      </trkpt>
      <trkpt lat="43.46903" lon="1.22039">
        <ele>173.27</ele>
        <time>2018-01-25T10:58:33Z</time>
      </trkpt>
      <trkpt lat="43.46901" lon="1.22041">
        <ele>173.28</ele>
        <time>2018-01-25T10:58:34Z</time>
      </trkpt>
      <trkpt lat="43.469" lon="1.22042">
        <ele>173.28</ele>
        <time>2018-01-25T10:58:35Z</time>
      </trkpt>
      <trkpt lat="43.46897" lon="1.22044">
        <ele>173.45</ele>
        <time>2018-01-25T10:58:38Z</time>
      </trkpt>
      <trkpt lat="43.46893" lon="1.22045">
        <ele>173.6</ele>
        <time>2018-01-25T10:58:41Z</time>
      </trkpt>
      <trkpt lat="43.46892" lon="1.22047">
        <ele>173.69</ele>
        <time>2018-01-25T10:58:42Z</time>
      </trkpt>
      <trkpt lat="43.46891" lon="1.22048">
        <ele>173.74</ele>
        <time>2018-01-25T10:58:43Z</time>
      </trkpt>
      <trkpt lat="43.4689" lon="1.22049">
        <ele>173.84</ele>
        <time>2018-01-25T10:58:45Z</time>
      </trkpt>
      <trkpt lat="43.46888" lon="1.22051">
        <ele>173.96</ele>
        <time>2018-01-25T10:58:47Z</time>
      </trkpt>
      <trkpt lat="43.46887" lon="1.22051">
        <ele>174.02</ele>
        <time>2018-01-25T10:58:48Z</time>
      </trkpt>
      <trkpt lat="43.46886" lon="1.22052">
        <ele>174.09</ele>
        <time>2018-01-25T10:58:49Z</time>
      </trkpt>
      <trkpt lat="43.46884" lon="1.22052">
        <ele>174.15</ele>
        <time>2018-01-25T10:58:50Z</time>
      </trkpt>
      <trkpt lat="43.46882" lon="1.22052">
        <ele>174.19</ele>
        <time>2018-01-25T10:58:51Z</time>
      </trkpt>
      <trkpt lat="43.46881" lon="1.22053">
        <ele>174.26</ele>
        <time>2018-01-25T10:58:52Z</time>
      </trkpt>
      <trkpt lat="43.4688" lon="1.22054">
        <ele>174.31</ele>
        <time>2018-01-25T10:58:53Z</time>
      </trkpt>
      <trkpt lat="43.46875" lon="1.22057">
        <ele>175.46</ele>
        <time>2018-01-25T10:59:04Z</time>
      </trkpt>
      <trkpt lat="43.46874" lon="1.22059">
        <ele>175.48</ele>
        <time>2018-01-25T10:59:05Z</time>
      </trkpt>
      <trkpt lat="43.46869" lon="1.22066">
        <ele>175.61</ele>
        <time>2018-01-25T10:59:10Z</time>
      </trkpt>
      <trkpt lat="43.46864" lon="1.2207">
        <ele>175.73</ele>
        <time>2018-01-25T10:59:15Z</time>
      </trkpt>
      <trkpt lat="43.46863" lon="1.22071">
        <ele>175.74</ele>
        <time>2018-01-25T10:59:16Z</time>
      </trkpt>
      <trkpt lat="43.46852" lon="1.22077">
        <ele>175.18</ele>
        <time>2018-01-25T10:59:26Z</time>
      </trkpt>
      <trkpt lat="43.46835" lon="1.22083">
        <ele>174.62</ele>
        <time>2018-01-25T10:59:39Z</time>
      </trkpt>
      <trkpt lat="43.46817" lon="1.22089">
        <ele>174.37</ele>
        <time>2018-01-25T10:59:54Z</time>
      </trkpt>
      <trkpt lat="43.46797" lon="1.22091">
        <ele>174.32</ele>
        <time>2018-01-25T11:00:11Z</time>
      </trkpt>
      <trkpt lat="43.46777" lon="1.22096">
        <ele>174.35</ele>
        <time>2018-01-25T11:00:27Z</time>
      </trkpt>
      <trkpt lat="43.46755" lon="1.22107">
        <ele>174.27</ele>
        <time>2018-01-25T11:00:43Z</time>
      </trkpt>
      <trkpt lat="43.46745" lon="1.22117">
        <ele>174.36</ele>
        <time>2018-01-25T11:00:54Z</time>
      </trkpt>
      <trkpt lat="43.46723" lon="1.22127">
        <ele>174.26</ele>
        <time>2018-01-25T11:01:13Z</time>
      </trkpt>
      <trkpt lat="43.46706" lon="1.22129">
        <ele>174.27</ele>
        <time>2018-01-25T11:01:26Z</time>
      </trkpt>
      <trkpt lat="43.46689" lon="1.22133">
        <ele>174.3</ele>
        <time>2018-01-25T11:01:39Z</time>
      </trkpt>
      <trkpt lat="43.46662" lon="1.22139">
        <ele>174.52</ele>
        <time>2018-01-25T11:01:59Z</time>
      </trkpt>
      <trkpt lat="43.46643" lon="1.22141">
        <ele>174.64</ele>
        <time>2018-01-25T11:02:16Z</time>
      </trkpt>
      <trkpt lat="43.46637" lon="1.22141">
        <ele>174.59</ele>
        <time>2018-01-25T11:02:21Z</time>
      </trkpt>
      <trkpt lat="43.46635" lon="1.22142">
        <ele>174.59</ele>
        <time>2018-01-25T11:02:22Z</time>
      </trkpt>
      <trkpt lat="43.46618" lon="1.22146">
        <ele>174.77</ele>
        <time>2018-01-25T11:02:36Z</time>
      </trkpt>
      <trkpt lat="43.46597" lon="1.2215">
        <ele>174.93</ele>
        <time>2018-01-25T11:02:52Z</time>
      </trkpt>
      <trkpt lat="43.46584" lon="1.22152">
        <ele>175.09</ele>
        <time>2018-01-25T11:03:10Z</time>
      </trkpt>
      <trkpt lat="43.4656" lon="1.22153">
        <ele>174.93</ele>
        <time>2018-01-25T11:03:30Z</time>
      </trkpt>
      <trkpt lat="43.46556" lon="1.22152">
        <ele>174.95</ele>
        <time>2018-01-25T11:03:34Z</time>
      </trkpt>
      <trkpt lat="43.46555" lon="1.2215">
        <ele>174.95</ele>
        <time>2018-01-25T11:03:35Z</time>
      </trkpt>
      <trkpt lat="43.46554" lon="1.22148">
        <ele>174.95</ele>
        <time>2018-01-25T11:03:36Z</time>
      </trkpt>
      <trkpt lat="43.46552" lon="1.22146">
        <ele>174.95</ele>
        <time>2018-01-25T11:03:38Z</time>
      </trkpt>
      <trkpt lat="43.46551" lon="1.22145">
        <ele>174.95</ele>
        <time>2018-01-25T11:03:39Z</time>
      </trkpt>
      <trkpt lat="43.46549" lon="1.22141">
        <ele>174.97</ele>
        <time>2018-01-25T11:03:42Z</time>
      </trkpt>
      <trkpt lat="43.46549" lon="1.22139">
        <ele>174.98</ele>
        <time>2018-01-25T11:03:43Z</time>
      </trkpt>
      <trkpt lat="43.4655" lon="1.22117">
        <ele>175.25</ele>
        <time>2018-01-25T11:03:57Z</time>
      </trkpt>
      <trkpt lat="43.46549" lon="1.22112">
        <ele>175.4</ele>
        <time>2018-01-25T11:04:00Z</time>
      </trkpt>
      <trkpt lat="43.4655" lon="1.22111">
        <ele>175.43</ele>
        <time>2018-01-25T11:04:01Z</time>
      </trkpt>
      <trkpt lat="43.4655" lon="1.22109">
        <ele>175.45</ele>
        <time>2018-01-25T11:04:02Z</time>
      </trkpt>
      <trkpt lat="43.46549" lon="1.22107">
        <ele>175.47</ele>
        <time>2018-01-25T11:04:03Z</time>
      </trkpt>
      <trkpt lat="43.46549" lon="1.22103">
        <ele>175.55</ele>
        <time>2018-01-25T11:04:06Z</time>
      </trkpt>
      <trkpt lat="43.46549" lon="1.22101">
        <ele>175.58</ele>
        <time>2018-01-25T11:04:07Z</time>
      </trkpt>
      <trkpt lat="43.46549" lon="1.22093">
        <ele>175.68</ele>
        <time>2018-01-25T11:04:11Z</time>
      </trkpt>
      <trkpt lat="43.46549" lon="1.22091">
        <ele>175.71</ele>
        <time>2018-01-25T11:04:12Z</time>
      </trkpt>
      <trkpt lat="43.4655" lon="1.22089">
        <ele>175.79</ele>
        <time>2018-01-25T11:04:13Z</time>
      </trkpt>
      <trkpt lat="43.4655" lon="1.22087">
        <ele>175.9</ele>
        <time>2018-01-25T11:04:14Z</time>
      </trkpt>
      <trkpt lat="43.4655" lon="1.22086">
        <ele>176.06</ele>
        <time>2018-01-25T11:04:15Z</time>
      </trkpt>
      <trkpt lat="43.46548" lon="1.22071">
        <ele>176.91</ele>
        <time>2018-01-25T11:04:25Z</time>
      </trkpt>
      <trkpt lat="43.46547" lon="1.22068">
        <ele>177.07</ele>
        <time>2018-01-25T11:04:26Z</time>
      </trkpt>
      <trkpt lat="43.46548" lon="1.22061">
        <ele>177.45</ele>
        <time>2018-01-25T11:04:30Z</time>
      </trkpt>
      <trkpt lat="43.46546" lon="1.22055">
        <ele>177.64</ele>
        <time>2018-01-25T11:04:33Z</time>
      </trkpt>
      <trkpt lat="43.46545" lon="1.22054">
        <ele>177.69</ele>
        <time>2018-01-25T11:04:34Z</time>
      </trkpt>
      <trkpt lat="43.46545" lon="1.22051">
        <ele>177.78</ele>
        <time>2018-01-25T11:04:35Z</time>
      </trkpt>
      <trkpt lat="43.46545" lon="1.22049">
        <ele>177.86</ele>
        <time>2018-01-25T11:04:36Z</time>
      </trkpt>
      <trkpt lat="43.46544" lon="1.22043">
        <ele>178.25</ele>
        <time>2018-01-25T11:04:40Z</time>
      </trkpt>
      <trkpt lat="43.46544" lon="1.22042">
        <ele>178.34</ele>
        <time>2018-01-25T11:04:41Z</time>
      </trkpt>
      <trkpt lat="43.46545" lon="1.2204">
        <ele>178.42</ele>
        <time>2018-01-25T11:04:42Z</time>
      </trkpt>
      <trkpt lat="43.46544" lon="1.2203">
        <ele>179.42</ele>
        <time>2018-01-25T11:04:49Z</time>
      </trkpt>
      <trkpt lat="43.46544" lon="1.22025">
        <ele>179.62</ele>
        <time>2018-01-25T11:04:52Z</time>
      </trkpt>
      <trkpt lat="43.46544" lon="1.22023">
        <ele>179.72</ele>
        <time>2018-01-25T11:04:53Z</time>
      </trkpt>
      <trkpt lat="43.46544" lon="1.22017">
        <ele>180.08</ele>
        <time>2018-01-25T11:04:57Z</time>
      </trkpt>
      <trkpt lat="43.46544" lon="1.22016">
        <ele>180.22</ele>
        <time>2018-01-25T11:04:58Z</time>
      </trkpt>
      <trkpt lat="43.46544" lon="1.22013">
        <ele>180.49</ele>
        <time>2018-01-25T11:05:00Z</time>
      </trkpt>
      <trkpt lat="43.46541" lon="1.2199">
        <ele>182.62</ele>
        <time>2018-01-25T11:05:15Z</time>
      </trkpt>
      <trkpt lat="43.46539" lon="1.21984">
        <ele>183.19</ele>
        <time>2018-01-25T11:05:19Z</time>
      </trkpt>
      <trkpt lat="43.46538" lon="1.21982">
        <ele>183.32</ele>
        <time>2018-01-25T11:05:20Z</time>
      </trkpt>
      <trkpt lat="43.46537" lon="1.2198">
        <ele>183.73</ele>
        <time>2018-01-25T11:05:22Z</time>
      </trkpt>
      <trkpt lat="43.46538" lon="1.21978">
        <ele>183.86</ele>
        <time>2018-01-25T11:05:23Z</time>
      </trkpt>
      <trkpt lat="43.46538" lon="1.21977">
        <ele>183.93</ele>
        <time>2018-01-25T11:05:24Z</time>
      </trkpt>
      <trkpt lat="43.46538" lon="1.21975">
        <ele>184.13</ele>
        <time>2018-01-25T11:05:25Z</time>
      </trkpt>
      <trkpt lat="43.46537" lon="1.21974">
        <ele>184.33</ele>
        <time>2018-01-25T11:05:26Z</time>
      </trkpt>
      <trkpt lat="43.46537" lon="1.21955">
        <ele>186.66</ele>
        <time>2018-01-25T11:05:40Z</time>
      </trkpt>
      <trkpt lat="43.46537" lon="1.21937">
        <ele>188.82</ele>
        <time>2018-01-25T11:05:53Z</time>
      </trkpt>
      <trkpt lat="43.46537" lon="1.21932">
        <ele>189.75</ele>
        <time>2018-01-25T11:05:57Z</time>
      </trkpt>
      <trkpt lat="43.46537" lon="1.21929">
        <ele>190.16</ele>
        <time>2018-01-25T11:05:59Z</time>
      </trkpt>
      <trkpt lat="43.46535" lon="1.21914">
        <ele>192.52</ele>
        <time>2018-01-25T11:06:12Z</time>
      </trkpt>
      <trkpt lat="43.46536" lon="1.21905">
        <ele>193.89</ele>
        <time>2018-01-25T11:06:19Z</time>
      </trkpt>
      <trkpt lat="43.46535" lon="1.21903">
        <ele>193.89</ele>
        <time>2018-01-25T11:06:20Z</time>
      </trkpt>
      <trkpt lat="43.46534" lon="1.21898">
        <ele>194.76</ele>
        <time>2018-01-25T11:06:24Z</time>
      </trkpt>
      <trkpt lat="43.46534" lon="1.21893">
        <ele>195.27</ele>
        <time>2018-01-25T11:06:28Z</time>
      </trkpt>
      <trkpt lat="43.46533" lon="1.2189">
        <ele>195.75</ele>
        <time>2018-01-25T11:06:30Z</time>
      </trkpt>
      <trkpt lat="43.46533" lon="1.21888">
        <ele>195.98</ele>
        <time>2018-01-25T11:06:31Z</time>
      </trkpt>
      <trkpt lat="43.46533" lon="1.21887">
        <ele>196.14</ele>
        <time>2018-01-25T11:06:32Z</time>
      </trkpt>
      <trkpt lat="43.46532" lon="1.21885">
        <ele>196.31</ele>
        <time>2018-01-25T11:06:33Z</time>
      </trkpt>
      <trkpt lat="43.46532" lon="1.21884">
        <ele>196.53</ele>
        <time>2018-01-25T11:06:34Z</time>
      </trkpt>
      <trkpt lat="43.46533" lon="1.21879">
        <ele>196.97</ele>
        <time>2018-01-25T11:06:37Z</time>
      </trkpt>
      <trkpt lat="43.46533" lon="1.21876">
        <ele>197.59</ele>
        <time>2018-01-25T11:06:40Z</time>
      </trkpt>
      <trkpt lat="43.46531" lon="1.21865">
        <ele>199.08</ele>
        <time>2018-01-25T11:06:47Z</time>
      </trkpt>
      <trkpt lat="43.46532" lon="1.21861">
        <ele>199.59</ele>
        <time>2018-01-25T11:06:50Z</time>
      </trkpt>
      <trkpt lat="43.46529" lon="1.21853">
        <ele>200.36</ele>
        <time>2018-01-25T11:06:56Z</time>
      </trkpt>
      <trkpt lat="43.46519" lon="1.21829">
        <ele>202.02</ele>
        <time>2018-01-25T11:07:12Z</time>
      </trkpt>
      <trkpt lat="43.4651" lon="1.21809">
        <ele>202.73</ele>
        <time>2018-01-25T11:07:27Z</time>
      </trkpt>
      <trkpt lat="43.46505" lon="1.21794">
        <ele>203</ele>
        <time>2018-01-25T11:07:37Z</time>
      </trkpt>
      <trkpt lat="43.46505" lon="1.21792">
        <ele>203</ele>
        <time>2018-01-25T11:07:38Z</time>
      </trkpt>
      <trkpt lat="43.46504" lon="1.21791">
        <ele>203.01</ele>
        <time>2018-01-25T11:07:39Z</time>
      </trkpt>
      <trkpt lat="43.46501" lon="1.2177">
        <ele>203.28</ele>
        <time>2018-01-25T11:07:54Z</time>
      </trkpt>
      <trkpt lat="43.46503" lon="1.21765">
        <ele>203.31</ele>
        <time>2018-01-25T11:07:58Z</time>
      </trkpt>
      <trkpt lat="43.46503" lon="1.21762">
        <ele>203.29</ele>
        <time>2018-01-25T11:08:00Z</time>
      </trkpt>
      <trkpt lat="43.46509" lon="1.21734">
        <ele>202.77</ele>
        <time>2018-01-25T11:08:19Z</time>
      </trkpt>
      <trkpt lat="43.46509" lon="1.21722">
        <ele>202.74</ele>
        <time>2018-01-25T11:08:36Z</time>
      </trkpt>
      <trkpt lat="43.46508" lon="1.21722">
        <ele>202.59</ele>
        <time>2018-01-25T11:08:51Z</time>
      </trkpt>
      <trkpt lat="43.46508" lon="1.21722">
        <ele>202.7</ele>
        <time>2018-01-25T11:09:06Z</time>
      </trkpt>
    </trkseg>
  </trk>
</gpx>